M I D A S
Marine Information and Data Acquisition System
Tripno 1200 of the Zeeleeuw from 2006-12-18 07:49:54 to 2006-12-18 13:37:40
Back to CruiseResearch ActivitiesStationsMapUnderway DataData graphs

EquipmentUnitsComment
TimeDGPSUTC
LatitudeDGPSDM.mWGS84
LongitudeDGPSDM.mWGS84
TemperatureSBE03/SBE38deg celciusITS90
ConductivitySBE21S/mITS90
SalinitySBE21 Practical Salinity Units
ChlorophylAChelsea fluorimeterg/lCalibrated in Aceton
Missing or incorrect values are displayed as -999
Sea surface data collected by the RV Zeeleeuw from 2006-12-18 07:00:44 to 2006-12-18 13:42:36
                                                                                    Next 1000 lines
Time Latitude Longitude Temperature Conductivity Salinity ChlorophylA
2006-12-18 07:50:01 51°13.603 2°56.076 9.214 3.020552 26.489968 -2.871232
2006-12-18 07:50:07 51°13.604 2°56.072 9.2385 3.002965 26.321204 -2.871232
2006-12-18 07:50:13 51°13.605 2°56.067 9.2298 2.968415 25.985264 -2.871232
2006-12-18 07:50:18 51°13.607 2°56.063 9.234 2.945141 25.75593 -2.871232
2006-12-18 07:50:23 51°13.608 2°56.058 9.2347 2.935418 25.657471 -2.871232
2006-12-18 07:50:28 51°13.61 2°56.054 9.2364 2.935418 25.657471 -2.871232
2006-12-18 07:50:33 51°13.611 2°56.049 9.2379 2.938521 25.689403 -2.871232
2006-12-18 07:50:38 51°13.613 2°56.043 9.2279 2.938521 25.684001 -2.871232
2006-12-18 07:50:43 51°13.614 2°56.037 9.2133 2.939245 25.680853 -2.871232
2006-12-18 07:50:48 51°13.616 2°56.031 9.2073 2.9439 25.720291 -2.871232
2006-12-18 07:50:54 51°13.619 2°56.024 9.1826 2.94752 25.752464 -2.871232
2006-12-18 07:50:58 51°13.62 2°56.02 9.1529 2.951554 25.788623 -2.871232
2006-12-18 07:51:03 51°13.623 2°56.013 9.125 2.951554 25.788623 -2.871232
2006-12-18 07:51:08 51°13.625 2°56.007 9.0876 2.95445 25.81653 -2.871232
2006-12-18 07:51:13 51°13.627 2°56 9.0752 2.950209 25.77973 -2.871232
2006-12-18 07:51:18 51°13.629 2°55.993 9.0516 2.941004 25.699819 -2.871232
2006-12-18 07:51:23 51°13.632 2°55.985 9.0466 2.932005 25.623906 -2.871232
2006-12-18 07:51:28 51°13.634 2°55.977 9.0363 2.932005 25.623906 -2.871232
2006-12-18 07:51:33 51°13.636 2°55.968 9.0364 2.906148 25.392272 -2.871232
2006-12-18 07:51:38 51°13.637 2°55.96 9.0249 2.872122 25.082671 -2.871232
2006-12-18 07:51:43 51°13.638 2°55.953 9.0225 2.82993 24.701163 -2.871232
2006-12-18 07:51:49 51°13.639 2°55.947 9.018 2.802321 24.456574 -2.871232
2006-12-18 07:51:53 51°13.64 2°55.944 9.0217 2.794773 24.397575 -2.871232
2006-12-18 07:51:58 51°13.64 2°55.943 9.0256 2.794773 24.397575 -2.871232
2006-12-18 07:52:03 51°13.64 2°55.941 9.0177 2.790016 24.361515 -2.871232
2006-12-18 07:52:08 51°13.641 2°55.939 9.0201 2.781021 24.284048 -2.871232
2006-12-18 07:52:13 51°13.641 2°55.936 9.0185 2.781124 24.290172 -2.871232
2006-12-18 07:52:17 51°13.642 2°55.934 9.021 2.787018 24.35198 -2.871232
2006-12-18 07:52:22 51°13.643 2°55.93 9.0206 2.792809 24.409611 -2.871232
2006-12-18 07:52:27 51°13.644 2°55.925 9.0125 2.796324 24.445374 -2.871232
2006-12-18 07:52:32 51°13.646 2°55.92 9.0211 2.796324 24.445374 -2.871232
2006-12-18 07:52:38 51°13.648 2°55.913 9.028 2.796531 24.448656 -2.871232
2006-12-18 07:52:43 51°13.65 2°55.906 9.0207 2.799736 24.480801 -2.871232
2006-12-18 07:52:48 51°13.653 2°55.9 9.0043 2.801805 24.500061 -2.871232
2006-12-18 07:52:54 51°13.656 2°55.892 8.9876 2.803666 24.518627 -2.871232
2006-12-18 07:52:58 51°13.659 2°55.886 8.9775 2.805217 24.536154 -2.871232
2006-12-18 07:53:03 51°13.662 2°55.879 8.9731 2.805217 24.536154 -2.871232
2006-12-18 07:53:08 51°13.666 2°55.872 8.9674 2.815971 24.638433 -2.871232
2006-12-18 07:53:13 51°13.669 2°55.864 8.972 2.823209 24.707526 -2.871232
2006-12-18 07:53:18 51°13.673 2°55.856 8.9821 2.810594 24.589238 -2.871232
2006-12-18 07:53:23 51°13.678 2°55.848 8.9873 2.793016 24.426443 -2.871232
2006-12-18 07:53:28 51°13.682 2°55.839 9.001 2.793016 24.426443 -2.871232
2006-12-18 07:53:33 51°13.686 2°55.831 9.0068 2.774507 24.257964 -2.871232
2006-12-18 07:53:38 51°13.691 2°55.823 9.018 2.76272 24.152882 -2.871232
2006-12-18 07:53:43 51°13.695 2°55.815 9.0296 2.763031 24.16034 -2.871232
2006-12-18 07:53:48 51°13.699 2°55.807 9.0372 2.775748 24.282747 -2.871232
2006-12-18 07:53:53 51°13.704 2°55.799 9.0411 2.792602 24.441846 -2.871232
2006-12-18 07:53:58 51°13.708 2°55.791 9.0375 2.792602 24.441846 -2.871232
2006-12-18 07:54:03 51°13.713 2°55.782 9.0379 2.810698 24.611049 -2.871232
2006-12-18 07:54:08 51°13.718 2°55.774 9.0404 2.826519 24.757082 -2.871232
2006-12-18 07:54:13 51°13.722 2°55.766 9.0361 2.851647 24.992329 -2.871232
2006-12-18 07:54:18 51°13.727 2°55.757 9.037 2.869021 25.152807 -2.871232
2006-12-18 07:54:23 51°13.732 2°55.748 9.0386 2.882569 25.277693 -2.871232
2006-12-18 07:54:28 51°13.736 2°55.74 9.0447 2.888671 25.333985 -2.871232
2006-12-18 07:54:33 51°13.74 2°55.732 9.0475 2.888671 25.333985 -2.871232
2006-12-18 07:54:38 51°13.744 2°55.724 9.0468 2.893532 25.379627 -2.871232
2006-12-18 07:54:43 51°13.747 2°55.718 9.0508 2.896221 25.40495 -2.871232
2006-12-18 07:54:48 51°13.75 2°55.712 9.0612 2.897979 25.421947 -2.871232
2006-12-18 07:54:53 51°13.752 2°55.707 9.0641 2.905426 25.493954 -2.871232
2006-12-18 07:54:58 51°13.755 2°55.703 9.0645 2.914217 25.576292 -2.871232
2006-12-18 07:55:02 51°13.755 2°55.7 9.0632 2.914217 25.576292 -2.871232
2006-12-18 07:55:07 51°13.757 2°55.698 9.066 2.921353 25.642635 -2.871232
2006-12-18 07:55:13 51°13.757 2°55.698 9.0615 2.929214 25.717354 -2.871232
2006-12-18 07:55:18 51°13.758 2°55.698 9.0605 2.943384 25.851147 -2.871232
2006-12-18 07:55:23 51°13.757 2°55.699 9.0592 2.955176 25.961948 -2.871232
2006-12-18 07:55:28 51°13.758 2°55.701 9.0538 2.955176 25.961948 -2.871232
2006-12-18 07:55:33 51°13.758 2°55.704 9.0525 2.960762 26.014011 -2.871232
2006-12-18 07:55:38 51°13.758 2°55.707 9.0523 2.964175 26.045716 -2.871232
2006-12-18 07:55:43 51°13.758 2°55.71 9.0428 2.966141 26.064764 -2.871232
2006-12-18 07:55:47 51°13.758 2°55.711 9.0316 2.966244 26.066455 -2.871232
2006-12-18 07:55:53 51°13.758 2°55.712 9.0245 2.964279 26.048782 -2.871232
2006-12-18 07:55:58 51°13.758 2°55.712 9.0157 2.959831 26.007738 -2.871232
2006-12-18 07:56:02 51°13.758 2°55.712 9.0198 2.959831 26.007738 -2.871232
2006-12-18 07:56:07 51°13.758 2°55.71 9.0185 2.955486 25.967698 -2.871232
2006-12-18 07:56:12 51°13.758 2°55.708 9.0174 2.950935 25.926341 -2.871232
2006-12-18 07:56:17 51°13.757 2°55.705 9.0135 2.939764 25.822228 -2.871232
2006-12-18 07:56:22 51°13.757 2°55.701 9.0123 2.926629 25.702512 -2.871232
2006-12-18 07:56:28 51°13.756 2°55.695 9.0129 2.916699 25.611812 -2.871232
2006-12-18 07:56:33 51°13.755 2°55.69 9.0201 2.916699 25.611812 -2.871232
2006-12-18 07:56:38 51°13.755 2°55.685 9.0235 2.912769 25.576475 -2.871232
2006-12-18 07:56:43 51°13.754 2°55.681 9.0213 2.910907 25.560484 -2.871232
2006-12-18 07:56:48 51°13.754 2°55.678 9.0128 2.908839 25.542489 -2.871232
2006-12-18 07:56:53 51°13.754 2°55.676 9.0077 2.905943 25.516486 -2.871232
2006-12-18 07:56:58 51°13.754 2°55.676 8.9996 2.905943 25.516486 -2.871232
2006-12-18 07:57:03 51°13.754 2°55.676 8.9898 2.907184 25.529173 -2.871232
2006-12-18 07:57:07 51°13.755 2°55.676 8.977 2.914424 25.59723 -2.871232
2006-12-18 07:57:13 51°13.755 2°55.678 8.9709 2.918871 25.638937 -2.871232
2006-12-18 07:57:17 51°13.756 2°55.679 8.9595 2.916596 25.61826 -2.871232
2006-12-18 07:57:23 51°13.758 2°55.681 8.9496 2.909046 25.548545 -2.871232
2006-12-18 07:57:27 51°13.76 2°55.683 8.9315 2.909046 25.548545 -2.871232
2006-12-18 07:57:33 51°13.763 2°55.686 8.9046 2.89922 25.458838 -2.871232
2006-12-18 07:57:39 51°13.766 2°55.688 8.8926 2.880915 25.289107 -2.871232
2006-12-18 07:57:43 51°13.768 2°55.689 8.8683 2.866746 25.158764 -2.871232
2006-12-18 07:57:49 51°13.769 2°55.69 8.8633 2.850407 25.008783 -2.871232
2006-12-18 07:57:53 51°13.769 2°55.69 8.8542 2.829311 24.812888 -2.871232
2006-12-18 07:57:58 51°13.769 2°55.69 8.856 2.798703 24.529837 -2.871232
2006-12-18 07:58:03 51°13.767 2°55.69 8.8458 2.798703 24.529837 -2.871232
2006-12-18 07:58:07 51°13.765 2°55.689 8.8466 2.767891 24.248169 -2.871232
2006-12-18 07:58:13 51°13.762 2°55.689 8.845 2.730567 23.904501 -2.871232
2006-12-18 07:58:18 51°13.761 2°55.689 8.8545 2.702447 23.644551 -2.871232
2006-12-18 07:58:23 51°13.76 2°55.688 8.8571 2.683425 23.469721 -2.871232
2006-12-18 07:58:29 51°13.759 2°55.688 8.8577 2.671434 23.36065 -2.871232
2006-12-18 07:58:34 51°13.759 2°55.688 8.8534 2.671434 23.36065 -2.871232
2006-12-18 07:58:38 51°13.76 2°55.687 8.847 2.663887 23.293072 -2.871232
2006-12-18 07:58:43 51°13.762 2°55.686 8.8372 2.659753 23.256423 -2.871232
2006-12-18 07:58:49 51°13.765 2°55.685 8.8002 2.663888 23.296784 -2.871232
2006-12-18 07:58:54 51°13.768 2°55.683 8.7692 2.670193 23.355547 -2.871232
2006-12-18 07:58:58 51°13.771 2°55.68 8.7172 2.670193 23.355547 -2.871232
2006-12-18 07:59:04 51°13.776 2°55.677 8.69 2.672778 23.379776 -2.871232
2006-12-18 07:59:09 51°13.781 2°55.673 8.6743 2.66916 23.346228 -2.871232
2006-12-18 07:59:13 51°13.785 2°55.67 8.656 2.657582 23.238648 -2.871232
2006-12-18 07:59:18 51°13.791 2°55.665 8.662 2.627709 22.962733 -2.871232
2006-12-18 07:59:23 51°13.797 2°55.661 8.6659 2.57696 22.495808 -2.871232
2006-12-18 07:59:28 51°13.804 2°55.656 8.6789 2.516193 21.941603 -2.871232
2006-12-18 07:59:33 51°13.811 2°55.651 8.6819 2.516193 21.941603 -2.871232
2006-12-18 07:59:38 51°13.819 2°55.645 8.7159 2.45874 21.412011 -2.871232
2006-12-18 07:59:42 51°13.825 2°55.641 8.7411 2.423817 21.095092 -2.871232
2006-12-18 07:59:47 51°13.833 2°55.635 8.7654 2.402018 20.897815 -2.871232
2006-12-18 07:59:52 51°13.842 2°55.629 8.7868 2.397472 20.859486 -2.871232
2006-12-18 07:59:57 51°13.85 2°55.623 8.8084 2.404394 20.923823 -2.871232
2006-12-18 08:00:02 51°13.859 2°55.616 8.8251 2.404394 20.923823 -2.871232
2006-12-18 08:00:07 51°13.868 2°55.609 8.8266 2.417825 21.047472 -2.871232
2006-12-18 08:00:12 51°13.877 2°55.602 8.8322 2.453264 21.375671 -2.871232
2006-12-18 08:00:17 51°13.887 2°55.594 8.8334 2.50338 21.838216 -2.871232
2006-12-18 08:00:22 51°13.896 2°55.586 8.8293 2.533348 22.110535 -2.871232
2006-12-18 08:00:27 51°13.905 2°55.579 8.8206 2.581818 22.557377 -2.871232
2006-12-18 08:00:32 51°13.915 2°55.572 8.8181 2.581818 22.557377 -2.871232
2006-12-18 08:00:37 51°13.925 2°55.565 8.8205 2.616236 22.875706 -2.871232
2006-12-18 08:00:43 51°13.937 2°55.556 8.8304 2.637322 23.069766 -2.871232
2006-12-18 08:00:48 51°13.947 2°55.549 8.8523 2.650553 23.19205 -2.871232
2006-12-18 08:00:53 51°13.956 2°55.542 8.8765 2.654791 23.230956 -2.871232
2006-12-18 08:00:57 51°13.964 2°55.536 8.8912 2.654791 23.230956 -2.871232
2006-12-18 08:01:02 51°13.974 2°55.529 8.916 2.653034 23.215908 -2.871232
2006-12-18 08:01:07 51°13.985 2°55.522 8.9283 2.654171 23.228079 -2.871232
2006-12-18 08:01:12 51°13.995 2°55.514 8.9443 2.662441 23.306396 -2.871232
2006-12-18 08:01:17 51°14.005 2°55.506 8.9521 2.688904 23.553673 -2.871232
2006-12-18 08:01:22 51°14.015 2°55.499 8.9534 2.728293 23.920669 -2.871232
2006-12-18 08:01:27 51°14.025 2°55.491 8.9504 2.761688 24.228833 -2.871232
2006-12-18 08:01:33 51°14.038 2°55.482 8.9446 2.761688 24.228833 -2.871232
2006-12-18 08:01:38 51°14.048 2°55.474 8.9383 2.796015 24.545516 -2.871232
2006-12-18 08:01:43 51°14.059 2°55.466 8.9304 2.823107 24.793023 -2.871232
2006-12-18 08:01:48 51°14.069 2°55.458 8.9261 2.843892 24.982865 -2.871232
2006-12-18 08:01:53 51°14.079 2°55.451 8.927 2.856716 25.100989 -2.871232
2006-12-18 08:01:58 51°14.089 2°55.443 8.9261 2.860439 25.133697 -2.871232
2006-12-18 08:02:03 51°14.099 2°55.435 8.9275 2.860439 25.133697 -2.871232
2006-12-18 08:02:08 51°14.108 2°55.427 8.9268 2.859508 25.125354 -2.871232
2006-12-18 08:02:13 51°14.118 2°55.42 8.9237 2.852682 25.062619 -2.871232
2006-12-18 08:02:18 51°14.127 2°55.412 8.9205 2.846271 25.004555 -2.871232
2006-12-18 08:02:23 51°14.136 2°55.404 8.9138 2.843789 24.98319 -2.871232
2006-12-18 08:02:27 51°14.144 2°55.398 8.906 2.843789 24.98319 -2.871232
2006-12-18 08:02:33 51°14.154 2°55.388 8.8987 2.845961 25.00553 -2.871232
2006-12-18 08:02:38 51°14.163 2°55.38 8.8933 2.848236 25.027549 -2.871232
2006-12-18 08:02:42 51°14.17 2°55.373 8.89 2.846891 25.015201 -2.871232
2006-12-18 08:02:47 51°14.179 2°55.365 8.8804 2.842755 24.977157 -2.871232
2006-12-18 08:02:52 51°14.187 2°55.356 8.873 2.835516 24.91042 -2.871232
2006-12-18 08:02:58 51°14.197 2°55.345 8.8697 2.835516 24.91042 -2.871232
2006-12-18 08:03:03 51°14.206 2°55.335 8.8651 2.827864 24.840347 -2.871232
2006-12-18 08:03:08 51°14.214 2°55.323 8.8628 2.819178 24.762908 -2.871232
2006-12-18 08:03:14 51°14.225 2°55.309 8.8553 2.811319 24.691497 -2.871232
2006-12-18 08:03:17 51°14.23 2°55.302 8.8463 2.802633 24.612745 -2.871232
2006-12-18 08:03:23 51°14.241 2°55.286 8.8428 2.795085 24.544991 -2.871232
2006-12-18 08:03:27 51°14.249 2°55.275 8.8323 2.790949 24.510218 -2.871232
2006-12-18 08:03:32 51°14.258 2°55.26 8.83 2.790949 24.510218 -2.871232
2006-12-18 08:03:37 51°14.267 2°55.244 8.8309 2.788984 24.49513 -2.871232
2006-12-18 08:03:42 51°14.277 2°55.229 8.8289 2.786916 24.479689 -2.871232
2006-12-18 08:03:47 51°14.286 2°55.212 8.8258 2.784642 24.462245 -2.871232
2006-12-18 08:03:52 51°14.295 2°55.195 8.8267 2.78154 24.437448 -2.871232
2006-12-18 08:03:57 51°14.305 2°55.178 8.8284 2.779058 24.419294 -2.871232
2006-12-18 08:04:02 51°14.314 2°55.16 8.8369 2.779058 24.419294 -2.871232
2006-12-18 08:04:07 51°14.324 2°55.142 8.843 2.780092 24.432541 -2.871232
2006-12-18 08:04:12 51°14.333 2°55.123 8.8532 2.782057 24.454145 -2.871232
2006-12-18 08:04:17 51°14.343 2°55.104 8.8611 2.783401 24.469102 -2.871232
2006-12-18 08:04:21 51°14.351 2°55.089 8.8792 2.784642 24.483061 -2.871232
2006-12-18 08:04:26 51°14.361 2°55.07 8.8929 2.784642 24.483061 -2.871232
2006-12-18 08:04:31 51°14.372 2°55.051 8.9096 2.790226 24.536451 -2.871232
2006-12-18 08:04:36 51°14.384 2°55.032 8.927 2.800152 24.629941 -2.871232
2006-12-18 08:04:41 51°14.397 2°55.015 8.9482 2.812974 24.750192 -2.871232
2006-12-18 08:04:46 51°14.411 2°54.999 8.9657 2.832828 24.935996 -2.871232
2006-12-18 08:04:51 51°14.426 2°54.985 8.9773 2.86075 25.197476 -2.871232
2006-12-18 08:04:56 51°14.44 2°54.97 9.0018 2.896222 25.530443 -2.871232
2006-12-18 08:05:01 51°14.455 2°54.956 9.012 2.896222 25.530443 -2.871232
2006-12-18 08:05:06 51°14.47 2°54.941 9.0227 2.935525 25.898185 -2.871232
2006-12-18 08:05:11 51°14.485 2°54.925 9.0308 2.973693 26.255864 -2.871232
2006-12-18 08:05:15 51°14.497 2°54.913 9.0442 3.015279 26.645731 -2.871232
2006-12-18 08:05:21 51°14.515 2°54.893 9.0495 3.063386 27.099621 -2.871232
2006-12-18 08:05:25 51°14.526 2°54.88 9.0512 3.119155 27.627536 -2.871232
2006-12-18 08:05:30 51°14.541 2°54.863 9.0469 3.119155 27.627536 -2.871232
2006-12-18 08:05:35 51°14.556 2°54.847 9.0454 3.167273 28.0871 -2.871232
2006-12-18 08:05:40 51°14.57 2°54.83 9.0406 3.220364 28.596152 -2.871232
2006-12-18 08:05:45 51°14.585 2°54.813 9.0408 3.264146 29.0144 -2.871232
2006-12-18 08:05:50 51°14.601 2°54.797 9.0354 3.296338 29.322838 -2.871232
2006-12-18 08:05:55 51°14.616 2°54.78 9.0324 3.296338 29.322838 -2.871232
2006-12-18 08:06:00 51°14.631 2°54.763 9.0316 3.320147 29.552024 -2.871232
2006-12-18 08:06:05 51°14.646 2°54.746 9.024 3.337643 29.722224 -2.871232
2006-12-18 08:06:10 51°14.662 2°54.728 9.0199 3.352447 29.869126 -2.871232
2006-12-18 08:06:14 51°14.674 2°54.714 9.015 3.361972 29.963977 -2.871232
2006-12-18 08:06:19 51°14.69 2°54.697 9.0019 3.376984 30.114701 -2.871232
2006-12-18 08:06:24 51°14.705 2°54.679 8.9975 3.376984 30.114701 -2.871232
2006-12-18 08:06:29 51°14.721 2°54.662 8.9859 3.388684 30.232781 -2.871232
2006-12-18 08:06:34 51°14.736 2°54.644 8.9699 3.394999 30.297665 -2.871232
2006-12-18 08:06:39 51°14.752 2°54.626 8.9515 3.401108 30.362137 -2.871232
2006-12-18 08:06:44 51°14.768 2°54.609 8.9337 3.404525 30.400792 -2.871232
2006-12-18 08:06:49 51°14.784 2°54.591 8.9292 3.406389 30.424888 -2.871232
2006-12-18 08:06:54 51°14.799 2°54.573 8.9298 3.408667 30.456327 -2.871232
2006-12-18 08:06:59 51°14.815 2°54.555 8.9249 3.408667 30.456327 -2.871232
2006-12-18 08:07:04 51°14.831 2°54.537 8.9214 3.409081 30.469314 -2.871232
2006-12-18 08:07:09 51°14.847 2°54.52 8.9157 3.410842 30.500507 -2.871232
2006-12-18 08:07:14 51°14.863 2°54.502 8.9124 3.410738 30.514049 -2.871232
2006-12-18 08:07:20 51°14.881 2°54.48 8.8999 3.40991 30.51879 -2.871232
2006-12-18 08:07:24 51°14.894 2°54.466 8.8898 3.408668 30.51375 -2.871232
2006-12-18 08:07:29 51°14.91 2°54.448 8.8936 3.408668 30.51375 -2.871232
2006-12-18 08:07:34 51°14.925 2°54.431 8.9076 3.410014 30.532788 -2.871232
2006-12-18 08:07:39 51°14.941 2°54.413 8.9331 3.410325 30.54074 -2.871232
2006-12-18 08:07:44 51°14.957 2°54.396 8.9703 3.410532 30.548478 -2.871232
2006-12-18 08:07:49 51°14.972 2°54.378 9.0023 3.41136 30.564015 -2.871232
2006-12-18 08:07:54 51°14.988 2°54.362 9.0475 3.41136 30.564015 -2.871232
2006-12-18 08:07:59 51°15.003 2°54.345 9.0781 3.412292 30.581403 -2.871232
2006-12-18 08:08:04 51°15.019 2°54.328 9.1143 3.399246 30.453393 -2.871232
2006-12-18 08:08:09 51°15.035 2°54.312 9.1403 3.401317 30.467485 -2.871232
2006-12-18 08:08:14 51°15.051 2°54.296 9.1594 3.421093 30.641198 -2.871232
2006-12-18 08:08:19 51°15.067 2°54.28 9.1776 3.432586 30.728467 -2.871232
2006-12-18 08:08:25 51°15.086 2°54.261 9.1817 3.44729 30.835246 -2.871232
2006-12-18 08:08:29 51°15.099 2°54.248 9.1964 3.44729 30.835246 -2.871232
2006-12-18 08:08:34 51°15.115 2°54.231 9.2036 3.460337 30.931151 -2.871232
2006-12-18 08:08:39 51°15.131 2°54.215 9.2085 3.475352 31.050537 -2.871232
2006-12-18 08:08:44 51°15.147 2°54.198 9.214 3.488814 31.156046 -2.871232
2006-12-18 08:08:49 51°15.163 2°54.181 9.2204 3.499688 31.239917 -2.871232
2006-12-18 08:08:54 51°15.178 2°54.163 9.2244 3.506109 31.286205 -2.871232
2006-12-18 08:08:59 51°15.194 2°54.146 9.2317 3.506109 31.286205 -2.871232
2006-12-18 08:09:04 51°15.21 2°54.129 9.2397 3.510562 31.316276 -2.871232
2006-12-18 08:09:09 51°15.226 2°54.112 9.2418 3.516361 31.362141 -2.871232
2006-12-18 08:09:14 51°15.243 2°54.096 9.2474 3.522886 31.41848 -2.871232
2006-12-18 08:09:19 51°15.259 2°54.079 9.2546 3.525889 31.440765 -2.871232
2006-12-18 08:09:25 51°15.278 2°54.06 9.2569 3.527857 31.453619 -2.871232
2006-12-18 08:09:29 51°15.291 2°54.047 9.2611 3.527857 31.453619 -2.871232
2006-12-18 08:09:34 51°15.308 2°54.03 9.2615 3.531068 31.477115 -2.871232
2006-12-18 08:09:39 51°15.324 2°54.015 9.2618 3.534071 31.501041 -2.871232
2006-12-18 08:09:44 51°15.341 2°53.998 9.2628 3.535832 31.512661 -2.871232
2006-12-18 08:09:49 51°15.357 2°53.982 9.2618 3.538628 31.532868 -2.871232
2006-12-18 08:09:54 51°15.373 2°53.965 9.2619 3.538628 31.532868 -2.871232
2006-12-18 08:09:59 51°15.39 2°53.948 9.2604 3.542046 31.56171 -2.871232
2006-12-18 08:10:04 51°15.406 2°53.931 9.2608 3.544739 31.584205 -2.871232
2006-12-18 08:10:09 51°15.422 2°53.915 9.2617 3.547846 31.612462 -2.871232
2006-12-18 08:10:14 51°15.438 2°53.898 9.2619 3.550228 31.633542 -2.871232
2006-12-18 08:10:19 51°15.455 2°53.882 9.2617 3.552507 31.655262 -2.871232
2006-12-18 08:10:24 51°15.471 2°53.865 9.2647 3.554578 31.674934 -2.871232
2006-12-18 08:10:29 51°15.488 2°53.849 9.2662 3.554578 31.674934 -2.871232
2006-12-18 08:10:34 51°15.504 2°53.832 9.2671 3.556857 31.698325 -2.871232
2006-12-18 08:10:39 51°15.52 2°53.815 9.2673 3.557686 31.706528 -2.871232
2006-12-18 08:10:44 51°15.537 2°53.799 9.2697 3.558825 31.716974 -2.871232
2006-12-18 08:10:49 51°15.553 2°53.782 9.2721 3.561518 31.742802 -2.871232
2006-12-18 08:10:54 51°15.569 2°53.765 9.2744 3.563693 31.763504 -2.871232
2006-12-18 08:10:59 51°15.586 2°53.749 9.2759 3.563693 31.763504 -2.871232
2006-12-18 08:11:04 51°15.602 2°53.732 9.277 3.56504 31.775165 -2.871232
2006-12-18 08:11:09 51°15.618 2°53.716 9.2763 3.567733 31.80016 -2.871232
2006-12-18 08:11:14 51°15.635 2°53.699 9.2774 3.570322 31.824129 -2.871232
2006-12-18 08:11:19 51°15.652 2°53.683 9.2778 3.571461 31.833738 -2.871232
2006-12-18 08:11:24 51°15.668 2°53.667 9.2768 3.571461 31.833738 -2.871232
2006-12-18 08:11:29 51°15.685 2°53.651 9.2734 3.57229 31.840269 -2.871232
2006-12-18 08:11:34 51°15.701 2°53.635 9.2701 3.573429 31.849039 -2.871232
2006-12-18 08:11:39 51°15.718 2°53.619 9.2682 3.574362 31.857433 -2.871232
2006-12-18 08:11:44 51°15.734 2°53.603 9.2691 3.575397 31.866852 -2.871232
2006-12-18 08:11:49 51°15.751 2°53.586 9.2768 3.57664 31.878323 -2.871232
2006-12-18 08:11:54 51°15.767 2°53.57 9.2858 3.577262 31.884478 -2.871232
2006-12-18 08:11:59 51°15.783 2°53.555 9.3021 3.577262 31.884478 -2.871232
2006-12-18 08:12:04 51°15.8 2°53.539 9.3307 3.577883 31.89315 -2.871232
2006-12-18 08:12:09 51°15.816 2°53.523 9.3669 3.578816 31.904063 -2.871232
2006-12-18 08:12:14 51°15.832 2°53.507 9.3876 3.579955 31.91535 -2.871232
2006-12-18 08:12:19 51°15.849 2°53.491 9.4182 3.581405 31.928035 -2.871232
2006-12-18 08:12:24 51°15.865 2°53.476 9.4401 3.582544 31.933442 -2.871232
2006-12-18 08:12:29 51°15.881 2°53.46 9.4549 3.582544 31.933442 -2.871232
2006-12-18 08:12:34 51°15.897 2°53.445 9.4814 3.58648 31.959822 -2.871232
2006-12-18 08:12:39 51°15.914 2°53.429 9.4943 3.595492 32.027186 -2.871232
2006-12-18 08:12:44 51°15.93 2°53.414 9.5155 3.602018 32.064839 -2.871232
2006-12-18 08:12:49 51°15.946 2°53.398 9.5257 3.608854 32.106363 -2.871232
2006-12-18 08:12:54 51°15.963 2°53.383 9.5342 3.614758 32.138625 -2.871232
2006-12-18 08:12:59 51°15.979 2°53.367 9.5398 3.614758 32.138625 -2.871232
2006-12-18 08:13:05 51°15.999 2°53.349 9.547 3.61973 32.161642 -2.871232
2006-12-18 08:13:09 51°16.012 2°53.337 9.5523 3.623459 32.176572 -2.871232
2006-12-18 08:13:14 51°16.028 2°53.321 9.5573 3.626463 32.184333 -2.871232
2006-12-18 08:13:19 51°16.044 2°53.305 9.5607 3.629467 32.197978 -2.871232
2006-12-18 08:13:24 51°16.061 2°53.29 9.5616 3.629467 32.197978 -2.871232
2006-12-18 08:13:29 51°16.077 2°53.274 9.566 3.631746 32.206146 -2.871232
2006-12-18 08:13:34 51°16.094 2°53.259 9.5688 3.632989 32.208305 -2.871232
2006-12-18 08:13:39 51°16.11 2°53.244 9.5725 3.634232 32.212146 -2.871232
2006-12-18 08:13:44 51°16.126 2°53.229 9.5754 3.635682 32.218868 -2.871232
2006-12-18 08:13:49 51°16.143 2°53.214 9.5804 3.636096 32.216223 -2.871232
2006-12-18 08:13:54 51°16.16 2°53.198 9.5862 3.636096 32.21202 -2.871232
2006-12-18 08:13:59 51°16.176 2°53.183 9.596 3.636096 32.21202 -2.871232
2006-12-18 08:14:04 51°16.192 2°53.168 9.6041 3.636407 32.211719 -2.871232
2006-12-18 08:14:09 51°16.209 2°53.154 9.6103 3.636407 32.206677 -2.871232
2006-12-18 08:14:14 51°16.226 2°53.139 9.62 3.6362 32.200436 -2.871232
2006-12-18 08:14:19 51°16.243 2°53.125 9.6256 3.636096 32.195218 -2.871232
2006-12-18 08:14:24 51°16.26 2°53.111 9.6303 3.635682 32.185262 -2.871232
2006-12-18 08:14:29 51°16.277 2°53.097 9.6339 3.635682 32.185262 -2.871232
2006-12-18 08:14:34 51°16.293 2°53.082 9.638 3.635889 32.17975 -2.871232
2006-12-18 08:14:39 51°16.311 2°53.069 9.6403 3.637235 32.184613 -2.871232
2006-12-18 08:14:44 51°16.327 2°53.055 9.6449 3.638271 32.187255 -2.871232
2006-12-18 08:14:49 51°16.344 2°53.041 9.6473 3.639929 32.194333 -2.871232
2006-12-18 08:14:54 51°16.361 2°53.026 9.6567 3.639929 32.194333 -2.871232
2006-12-18 08:14:59 51°16.378 2°53.012 9.6656 3.64055 32.194575 -2.871232
2006-12-18 08:15:04 51°16.395 2°52.999 9.6747 3.641897 32.201947 -2.871232
2006-12-18 08:15:09 51°16.412 2°52.985 9.6868 3.642933 32.207101 -2.871232
2006-12-18 08:15:14 51°16.428 2°52.971 9.693 3.643761 32.211055 -2.871232
2006-12-18 08:15:19 51°16.445 2°52.956 9.7006 3.64459 32.215009 -2.871232
2006-12-18 08:15:25 51°16.466 2°52.94 9.712 3.646144 32.224411 -2.871232
2006-12-18 08:15:29 51°16.479 2°52.929 9.7196 3.646144 32.224411 -2.871232
2006-12-18 08:15:34 51°16.496 2°52.914 9.7252 3.649045 32.245368 -2.871232
2006-12-18 08:15:39 51°16.513 2°52.9 9.7302 3.651531 32.25889 -2.871232
2006-12-18 08:15:44 51°16.53 2°52.886 9.7354 3.653914 32.272228 -2.871232
2006-12-18 08:15:49 51°16.546 2°52.872 9.7425 3.655467 32.279938 -2.871232
2006-12-18 08:15:54 51°16.563 2°52.858 9.7465 3.658265 32.298174 -2.871232
2006-12-18 08:15:59 51°16.58 2°52.844 9.7528 3.658265 32.298174 -2.871232
2006-12-18 08:16:04 51°16.597 2°52.83 9.757 3.660751 32.312512 -2.871232
2006-12-18 08:16:09 51°16.614 2°52.815 9.7647 3.662408 32.322067 -2.871232
2006-12-18 08:16:14 51°16.63 2°52.801 9.7692 3.664377 32.333831 -2.871232
2006-12-18 08:16:19 51°16.647 2°52.787 9.7725 3.665309 32.336264 -2.871232
2006-12-18 08:16:24 51°16.664 2°52.773 9.7738 3.667484 32.350894 -2.871232
2006-12-18 08:16:29 51°16.68 2°52.758 9.7774 3.667484 32.350894 -2.871232
2006-12-18 08:16:34 51°16.697 2°52.744 9.7792 3.669142 32.360438 -2.871232
2006-12-18 08:16:39 51°16.713 2°52.729 9.7815 3.670592 32.368787 -2.871232
2006-12-18 08:16:44 51°16.73 2°52.715 9.7836 3.673079 32.387294 -2.871232
2006-12-18 08:16:49 51°16.746 2°52.701 9.7844 3.67484 32.399526 -2.871232
2006-12-18 08:16:54 51°16.762 2°52.687 9.7856 3.67484 32.399526 -2.871232
2006-12-18 08:16:59 51°16.779 2°52.673 9.7834 3.67598 32.405659 -2.871232
2006-12-18 08:17:04 51°16.795 2°52.658 9.7801 3.677223 32.414488 -2.871232
2006-12-18 08:17:09 51°16.812 2°52.647 9.773 3.678362 32.4223 -2.871232
2006-12-18 08:17:14 51°16.829 2°52.635 9.764 3.679398 32.429936 -2.871232
2006-12-18 08:17:19 51°16.846 2°52.624 9.7571 3.680124 32.434524 -2.871232
2006-12-18 08:17:24 51°16.864 2°52.616 9.7447 3.681056 32.441984 -2.871232
2006-12-18 08:17:29 51°16.882 2°52.607 9.7346 3.681056 32.441984 -2.871232
2006-12-18 08:17:34 51°16.9 2°52.6 9.7234 3.68116 32.442158 -2.871232
2006-12-18 08:17:39 51°16.918 2°52.592 9.7164 3.680331 32.436555 -2.871232
2006-12-18 08:17:44 51°16.936 2°52.586 9.7076 3.679606 32.433649 -2.871232
2006-12-18 08:17:49 51°16.955 2°52.58 9.7021 3.67857 32.430217 -2.871232
2006-12-18 08:17:54 51°16.973 2°52.575 9.6909 3.676705 32.419496 -2.871232
2006-12-18 08:17:59 51°16.991 2°52.57 9.6844 3.676705 32.419496 -2.871232
2006-12-18 08:18:04 51°17.01 2°52.565 9.6819 3.675151 32.416866 -2.871232
2006-12-18 08:18:09 51°17.028 2°52.561 9.6738 3.671939 32.394604 -2.871232
2006-12-18 08:18:14 51°17.047 2°52.557 9.6632 3.669349 32.378434 -2.871232
2006-12-18 08:18:19 51°17.065 2°52.553 9.647 3.66707 32.365308 -2.871232
2006-12-18 08:18:24 51°17.084 2°52.549 9.6422 3.66707 32.365308 -2.871232
2006-12-18 08:18:29 51°17.102 2°52.545 9.6348 3.666138 32.365401 -2.871232
2006-12-18 08:18:34 51°17.121 2°52.541 9.6175 3.665102 32.362795 -2.871232
2006-12-18 08:18:39 51°17.139 2°52.537 9.6114 3.663652 32.356959 -2.871232
2006-12-18 08:18:44 51°17.157 2°52.533 9.5972 3.66158 32.345855 -2.871232
2006-12-18 08:18:49 51°17.176 2°52.529 9.5879 3.659715 32.337624 -2.871232
2006-12-18 08:18:54 51°17.194 2°52.526 9.5708 3.659715 32.337624 -2.871232
2006-12-18 08:18:59 51°17.213 2°52.522 9.5576 3.658058 32.331425 -2.871232
2006-12-18 08:19:04 51°17.232 2°52.519 9.5338 3.655779 32.319954 -2.871232
2006-12-18 08:19:09 51°17.25 2°52.516 9.5158 3.653811 32.312375 -2.871232
2006-12-18 08:19:14 51°17.269 2°52.514 9.4995 3.650806 32.294601 -2.871232
2006-12-18 08:19:19 51°17.287 2°52.511 9.4809 3.647491 32.27292 -2.871232
2006-12-18 08:19:25 51°17.31 2°52.508 9.4611 3.644798 32.259867 -2.871232
2006-12-18 08:19:29 51°17.325 2°52.505 9.4515 3.644798 32.259867 -2.871232
2006-12-18 08:19:34 51°17.343 2°52.502 9.4251 3.641069 32.23829 -2.871232
2006-12-18 08:19:39 51°17.362 2°52.499 9.4066 3.637754 32.225824 -2.871232
2006-12-18 08:19:45 51°17.384 2°52.495 9.389 3.63361 32.203498 -2.871232
2006-12-18 08:19:49 51°17.399 2°52.493 9.379 3.628949 32.17773 -2.871232
2006-12-18 08:19:54 51°17.418 2°52.491 9.3557 3.625116 32.157591 -2.871232
2006-12-18 08:19:59 51°17.437 2°52.49 9.3479 3.625116 32.157591 -2.871232
2006-12-18 08:20:04 51°17.455 2°52.488 9.326 3.621076 32.137914 -2.871232
2006-12-18 08:20:09 51°17.474 2°52.487 9.3098 3.615586 32.102224 -2.871232
2006-12-18 08:20:14 51°17.493 2°52.486 9.3087 3.611029 32.074871 -2.871232
2006-12-18 08:20:19 51°17.511 2°52.484 9.2965 3.607093 32.053636 -2.871232
2006-12-18 08:20:24 51°17.53 2°52.485 9.2852 3.607093 32.053636 -2.871232
2006-12-18 08:20:29 51°17.549 2°52.485 9.2902 3.601706 32.020574 -2.871232
2006-12-18 08:20:34 51°17.567 2°52.485 9.2761 3.597149 31.993996 -2.871232
2006-12-18 08:20:39 51°17.586 2°52.486 9.2635 3.593834 31.977171 -2.871232
2006-12-18 08:20:44 51°17.604 2°52.487 9.2557 3.590002 31.955211 -2.871232
2006-12-18 08:20:49 51°17.623 2°52.488 9.2595 3.587205 31.937612 -2.871232
2006-12-18 08:20:54 51°17.642 2°52.489 9.2546 3.584409 31.921682 -2.871232
2006-12-18 08:20:59 51°17.661 2°52.49 9.2433 3.584409 31.921682 -2.871232
2006-12-18 08:21:04 51°17.679 2°52.491 9.2415 3.58213 31.907517 -2.871232
2006-12-18 08:21:09 51°17.698 2°52.492 9.228 3.579333 31.891573 -2.871232
2006-12-18 08:21:14 51°17.716 2°52.493 9.2298 3.577158 31.879259 -2.871232
2006-12-18 08:21:19 51°17.735 2°52.494 9.2238 3.575294 31.86918 -2.871232
2006-12-18 08:21:24 51°17.754 2°52.496 9.2256 3.573637 31.857795 -2.871232
2006-12-18 08:21:29 51°17.772 2°52.499 9.2164 3.573637 31.857795 -2.871232
2006-12-18 08:21:34 51°17.791 2°52.502 9.2106 3.571876 31.847059 -2.871232
2006-12-18 08:21:39 51°17.809 2°52.505 9.201 3.570219 31.838184 -2.871232
2006-12-18 08:21:45 51°17.832 2°52.51 9.2026 3.568665 31.829494 -2.871232
2006-12-18 08:21:49 51°17.846 2°52.513 9.2 3.567422 31.822205 -2.871232
2006-12-18 08:21:54 51°17.865 2°52.517 9.1972 3.566076 31.812211 -2.871232
2006-12-18 08:21:59 51°17.883 2°52.521 9.1943 3.566076 31.812211 -2.871232
2006-12-18 08:22:04 51°17.901 2°52.526 9.1924 3.564936 31.805946 -2.871232
2006-12-18 08:22:09 51°17.92 2°52.53 9.1892 3.562658 31.789222 -2.871232
2006-12-18 08:22:14 51°17.938 2°52.536 9.1892 3.561001 31.777818 -2.871232
2006-12-18 08:22:19 51°17.957 2°52.541 9.1913 3.559965 31.771736 -2.871232
2006-12-18 08:22:24 51°17.975 2°52.545 9.1909 3.559965 31.771736 -2.871232
2006-12-18 08:22:29 51°17.994 2°52.551 9.1947 3.558515 31.761545 -2.871232
2006-12-18 08:22:34 51°18.012 2°52.556 9.202 3.557065 31.751352 -2.871232
2006-12-18 08:22:39 51°18.03 2°52.564 9.2014 3.556133 31.744619 -2.871232
2006-12-18 08:22:44 51°18.048 2°52.572 9.2063 3.555511 31.740967 -2.871232
2006-12-18 08:22:49 51°18.066 2°52.581 9.2079 3.555304 31.738912 -2.871232
2006-12-18 08:22:54 51°18.084 2°52.591 9.2106 3.555408 31.740776 -2.871232
2006-12-18 08:22:59 51°18.101 2°52.601 9.2126 3.555408 31.740776 -2.871232
2006-12-18 08:23:04 51°18.119 2°52.611 9.2174 3.555718 31.741347 -2.871232
2006-12-18 08:23:09 51°18.137 2°52.622 9.2202 3.555822 31.739027 -2.871232
2006-12-18 08:23:14 51°18.154 2°52.633 9.2272 3.556029 31.738571 -2.871232
2006-12-18 08:23:19 51°18.171 2°52.648 9.2256 3.55634 31.738305 -2.871232
2006-12-18 08:23:24 51°18.187 2°52.662 9.2296 3.556547 31.738686 -2.871232
2006-12-18 08:23:29 51°18.203 2°52.677 9.2368 3.556547 31.738686 -2.871232
2006-12-18 08:23:34 51°18.219 2°52.694 9.2402 3.556858 31.73842 -2.871232
2006-12-18 08:23:39 51°18.234 2°52.712 9.2477 3.557272 31.739182 -2.871232
2006-12-18 08:23:44 51°18.249 2°52.73 9.2468 3.557582 31.738916 -2.871232
2006-12-18 08:23:49 51°18.264 2°52.749 9.2506 3.558411 31.742947 -2.871232
2006-12-18 08:23:54 51°18.278 2°52.769 9.2529 3.558411 31.742947 -2.871232
2006-12-18 08:23:59 51°18.292 2°52.788 9.2572 3.559343 31.748839 -2.871232
2006-12-18 08:24:05 51°18.309 2°52.812 9.2587 3.560068 31.751842 -2.871232
2006-12-18 08:24:09 51°18.32 2°52.828 9.2624 3.56069 31.752982 -2.871232
2006-12-18 08:24:14 51°18.334 2°52.849 9.2631 3.561622 31.758036 -2.871232
2006-12-18 08:24:19 51°18.348 2°52.869 9.2624 3.562865 31.767839 -2.871232
2006-12-18 08:24:24 51°18.362 2°52.889 9.2606 3.562865 31.767839 -2.871232
2006-12-18 08:24:29 51°18.376 2°52.909 9.2627 3.563486 31.77065 -2.871232
2006-12-18 08:24:34 51°18.39 2°52.93 9.2565 3.564211 31.774485 -2.871232
2006-12-18 08:24:39 51°18.404 2°52.95 9.2537 3.564936 31.778321 -2.871232
2006-12-18 08:24:44 51°18.418 2°52.97 9.2512 3.565557 31.781966 -2.871232
2006-12-18 08:24:49 51°18.432 2°52.99 9.2477 3.565765 31.783181 -2.871232
2006-12-18 08:24:54 51°18.446 2°53.01 9.2436 3.565661 31.781319 -2.871232
2006-12-18 08:24:59 51°18.46 2°53.03 9.2381 3.565661 31.781319 -2.871232
2006-12-18 08:25:04 51°18.474 2°53.05 9.2433 3.56535 31.779078 -2.871232
2006-12-18 08:25:09 51°18.488 2°53.07 9.2382 3.56535 31.780751 -2.871232
2006-12-18 08:25:14 51°18.503 2°53.089 9.2391 3.56504 31.781019 -2.871232
2006-12-18 08:25:19 51°18.517 2°53.109 9.2387 3.564625 31.779425 -2.871232
2006-12-18 08:25:25 51°18.534 2°53.133 9.2354 3.564004 31.776616 -2.871232
2006-12-18 08:25:29 51°18.546 2°53.149 9.2364 3.564004 31.776616 -2.871232
2006-12-18 08:25:34 51°18.56 2°53.168 9.2369 3.563279 31.773616 -2.871232
2006-12-18 08:25:39 51°18.574 2°53.188 9.2392 3.562865 31.771185 -2.871232
2006-12-18 08:25:44 51°18.588 2°53.208 9.2374 3.56245 31.768754 -2.871232
2006-12-18 08:25:49 51°18.603 2°53.227 9.2402 3.562243 31.768374 -2.871232
2006-12-18 08:25:54 51°18.617 2°53.247 9.2393 3.562243 31.768374 -2.871232
2006-12-18 08:25:59 51°18.632 2°53.266 9.2441 3.562243 31.769211 -2.871232
2006-12-18 08:26:04 51°18.646 2°53.286 9.2433 3.562347 31.771074 -2.871232
2006-12-18 08:26:09 51°18.66 2°53.306 9.2512 3.562658 31.773316 -2.871232
2006-12-18 08:26:14 51°18.675 2°53.325 9.2495 3.562761 31.774342 -2.871232
2006-12-18 08:26:19 51°18.689 2°53.345 9.2503 3.562865 31.775368 -2.871232
2006-12-18 08:26:25 51°18.706 2°53.369 9.2506 3.563279 31.778637 -2.871232
2006-12-18 08:26:29 51°18.718 2°53.384 9.2506 3.563279 31.778637 -2.871232
2006-12-18 08:26:34 51°18.732 2°53.404 9.2513 3.563486 31.779015 -2.871232
2006-12-18 08:26:39 51°18.747 2°53.423 9.2575 3.564315 31.785551 -2.871232
2006-12-18 08:26:45 51°18.764 2°53.447 9.2622 3.565143 31.790413 -2.871232
2006-12-18 08:26:49 51°18.776 2°53.462 9.2682 3.566179 31.799 -2.871232
2006-12-18 08:26:54 51°18.79 2°53.482 9.2707 3.567008 31.805534 -2.871232
2006-12-18 08:26:59 51°18.804 2°53.502 9.2709 3.567008 31.805534 -2.871232
2006-12-18 08:27:04 51°18.818 2°53.522 9.2751 3.567629 31.810853 -2.871232
2006-12-18 08:27:10 51°18.835 2°53.546 9.2789 3.568043 31.81412 -2.871232
2006-12-18 08:27:14 51°18.847 2°53.562 9.2829 3.568665 31.816089 -2.871232
2006-12-18 08:27:19 51°18.861 2°53.582 9.2867 3.569908 31.824213 -2.871232
2006-12-18 08:27:24 51°18.876 2°53.601 9.2914 3.569908 31.824213 -2.871232
2006-12-18 08:27:29 51°18.89 2°53.622 9.2958 3.571358 31.834388 -2.871232
2006-12-18 08:27:34 51°18.904 2°53.641 9.2992 3.572808 31.846236 -2.871232
2006-12-18 08:27:39 51°18.919 2°53.661 9.3023 3.574258 31.857245 -2.871232
2006-12-18 08:27:44 51°18.933 2°53.68 9.3036 3.575605 31.867227 -2.871232
2006-12-18 08:27:49 51°18.947 2°53.7 9.3064 3.577158 31.878421 -2.871232
2006-12-18 08:27:54 51°18.962 2°53.72 9.3078 3.577158 31.878421 -2.871232
2006-12-18 08:27:59 51°18.976 2°53.74 9.3094 3.578919 31.891664 -2.871232
2006-12-18 08:28:04 51°18.991 2°53.759 9.3112 3.580265 31.900802 -2.871232
2006-12-18 08:28:09 51°19.005 2°53.779 9.3113 3.581508 31.908914 -2.871232
2006-12-18 08:28:14 51°19.02 2°53.799 9.3122 3.582441 31.914787 -2.871232
2006-12-18 08:28:19 51°19.034 2°53.819 9.3123 3.583166 31.919447 -2.871232
2006-12-18 08:28:24 51°19.048 2°53.839 9.3143 3.583994 31.924294 -2.871232
2006-12-18 08:28:29 51°19.063 2°53.858 9.3142 3.583994 31.924294 -2.871232
2006-12-18 08:28:34 51°19.077 2°53.878 9.3139 3.584927 31.931843 -2.871232
2006-12-18 08:28:39 51°19.092 2°53.898 9.3154 3.585548 31.936316 -2.871232
2006-12-18 08:28:44 51°19.106 2°53.917 9.3153 3.585962 31.939577 -2.871232
2006-12-18 08:28:49 51°19.12 2°53.937 9.3139 3.586377 31.942839 -2.871232
2006-12-18 08:28:54 51°19.135 2°53.957 9.3134 3.586895 31.947125 -2.871232
2006-12-18 08:28:59 51°19.149 2°53.977 9.3142 3.586895 31.947125 -2.871232
2006-12-18 08:29:04 51°19.164 2°53.996 9.3137 3.587309 31.949547 -2.871232
2006-12-18 08:29:09 51°19.178 2°54.016 9.3122 3.58762 31.952623 -2.871232
2006-12-18 08:29:14 51°19.193 2°54.036 9.3123 3.587827 31.953833 -2.871232
2006-12-18 08:29:19 51°19.207 2°54.055 9.313 3.588241 31.957934 -2.871232
2006-12-18 08:29:24 51°19.221 2°54.075 9.3109 3.588241 31.957934 -2.871232
2006-12-18 08:29:29 51°19.236 2°54.094 9.3096 3.588448 31.960825 -2.871232
2006-12-18 08:29:34 51°19.251 2°54.114 9.3075 3.588448 31.960825 -2.871232
2006-12-18 08:29:39 51°19.266 2°54.133 9.3101 3.588759 31.9639 -2.871232
2006-12-18 08:29:44 51°19.28 2°54.153 9.3064 3.588863 31.964926 -2.871232
2006-12-18 08:29:49 51°19.294 2°54.172 9.3093 3.588759 31.9639 -2.871232
2006-12-18 08:29:54 51°19.308 2°54.192 9.3054 3.588655 31.964555 -2.871232
2006-12-18 08:29:59 51°19.323 2°54.212 9.3022 3.588655 31.964555 -2.871232
2006-12-18 08:30:05 51°19.34 2°54.236 9.3028 3.588655 31.965395 -2.871232
2006-12-18 08:30:09 51°19.351 2°54.252 9.3064 3.588655 31.966235 -2.871232
2006-12-18 08:30:14 51°19.366 2°54.271 9.3027 3.588655 31.967075 -2.871232
2006-12-18 08:30:19 51°19.38 2°54.291 9.2993 3.588655 31.967075 -2.871232
2006-12-18 08:30:25 51°19.397 2°54.314 9.2987 3.588655 31.967915 -2.871232
2006-12-18 08:30:29 51°19.409 2°54.33 9.2965 3.588655 31.967915 -2.871232
2006-12-18 08:30:34 51°19.423 2°54.349 9.2945 3.588656 31.969596 -2.871232
2006-12-18 08:30:39 51°19.438 2°54.369 9.2927 3.588759 31.970621 -2.871232
2006-12-18 08:30:44 51°19.452 2°54.389 9.2916 3.588863 31.971647 -2.871232
2006-12-18 08:30:49 51°19.467 2°54.408 9.289 3.588966 31.974353 -2.871232
2006-12-18 08:30:54 51°19.481 2°54.428 9.2872 3.588759 31.974823 -2.871232
2006-12-18 08:30:59 51°19.496 2°54.447 9.2859 3.588759 31.974823 -2.871232
2006-12-18 08:31:04 51°19.51 2°54.467 9.2856 3.588552 31.974453 -2.871232
2006-12-18 08:31:09 51°19.524 2°54.487 9.2828 3.588241 31.973898 -2.871232
2006-12-18 08:31:14 51°19.539 2°54.506 9.2825 3.588034 31.973528 -2.871232
2006-12-18 08:31:19 51°19.553 2°54.527 9.2779 3.587827 31.973158 -2.871232
2006-12-18 08:31:24 51°19.567 2°54.547 9.2743 3.587827 31.973158 -2.871232
2006-12-18 08:31:29 51°19.581 2°54.567 9.2717 3.58762 31.972787 -2.871232
2006-12-18 08:31:34 51°19.595 2°54.587 9.269 3.587309 31.971391 -2.871232
2006-12-18 08:31:39 51°19.609 2°54.608 9.2635 3.586998 31.969995 -2.871232
2006-12-18 08:31:44 51°19.623 2°54.629 9.262 3.586481 31.966547 -2.871232
2006-12-18 08:31:49 51°19.636 2°54.65 9.2567 3.585963 31.963939 -2.871232
2006-12-18 08:31:54 51°19.65 2°54.671 9.2564 3.585341 31.961145 -2.871232
2006-12-18 08:31:59 51°19.664 2°54.692 9.252 3.585341 31.961145 -2.871232
2006-12-18 08:32:04 51°19.678 2°54.713 9.2529 3.584513 31.955458 -2.871232
2006-12-18 08:32:10 51°19.694 2°54.739 9.2482 3.583891 31.952664 -2.871232
2006-12-18 08:32:14 51°19.705 2°54.755 9.2458 3.583166 31.948842 -2.871232
2006-12-18 08:32:19 51°19.719 2°54.776 9.2423 3.582441 31.945861 -2.871232
2006-12-18 08:32:24 51°19.733 2°54.797 9.2361 3.581716 31.942879 -2.871232
2006-12-18 08:32:29 51°19.746 2°54.818 9.2354 3.581716 31.942879 -2.871232
2006-12-18 08:32:34 51°19.761 2°54.839 9.2331 3.581095 31.939242 -2.871232
2006-12-18 08:32:39 51°19.774 2°54.86 9.2271 3.580577 31.936631 -2.871232
2006-12-18 08:32:45 51°19.791 2°54.885 9.2252 3.580059 31.934861 -2.871232
2006-12-18 08:32:49 51°19.803 2°54.901 9.2254 3.579437 31.931223 -2.871232
2006-12-18 08:32:54 51°19.816 2°54.922 9.2195 3.579437 31.931223 -2.871232
2006-12-18 08:32:59 51°19.83 2°54.942 9.2208 3.579023 31.930478 -2.871232
2006-12-18 08:33:04 51°19.844 2°54.963 9.2191 3.578298 31.928335 -2.871232
2006-12-18 08:33:10 51°19.86 2°54.989 9.215 3.577677 31.924695 -2.871232
2006-12-18 08:33:14 51°19.872 2°55.005 9.2148 3.577159 31.922923 -2.871232
2006-12-18 08:33:19 51°19.886 2°55.026 9.212 3.576641 31.921151 -2.871232
2006-12-18 08:33:25 51°19.902 2°55.052 9.2072 3.576019 31.918351 -2.871232
2006-12-18 08:33:29 51°19.913 2°55.068 9.2047 3.576019 31.918351 -2.871232
2006-12-18 08:33:34 51°19.927 2°55.089 9.2028 3.575502 31.914056 -2.871232
2006-12-18 08:33:39 51°19.941 2°55.11 9.204 3.574984 31.911442 -2.871232
2006-12-18 08:33:44 51°19.955 2°55.131 9.2032 3.574569 31.909014 -2.871232
2006-12-18 08:33:49 51°19.969 2°55.152 9.2079 3.573948 31.905372 -2.871232
2006-12-18 08:33:54 51°19.983 2°55.172 9.2068 3.573327 31.903411 -2.871232
2006-12-18 08:33:59 51°19.997 2°55.193 9.2044 3.573327 31.903411 -2.871232
2006-12-18 08:34:04 51°20.01 2°55.214 9.2007 3.572601 31.898741 -2.871232
2006-12-18 08:34:09 51°20.024 2°55.235 9.2045 3.572084 31.896125 -2.871232
2006-12-18 08:34:14 51°20.038 2°55.256 9.2035 3.571669 31.892855 -2.871232
2006-12-18 08:34:19 51°20.052 2°55.277 9.2032 3.571669 31.892014 -2.871232
2006-12-18 08:34:24 51°20.065 2°55.298 9.2087 3.571669 31.892014 -2.871232
2006-12-18 08:34:29 51°20.079 2°55.319 9.2073 3.571669 31.892014 -2.871232
2006-12-18 08:34:34 51°20.093 2°55.34 9.2084 3.571566 31.892668 -2.871232
2006-12-18 08:34:39 51°20.107 2°55.362 9.2088 3.571566 31.893509 -2.871232
2006-12-18 08:34:44 51°20.121 2°55.383 9.2106 3.571566 31.893509 -2.871232
2006-12-18 08:34:49 51°20.134 2°55.404 9.211 3.571773 31.895565 -2.871232
2006-12-18 08:34:54 51°20.148 2°55.425 9.2107 3.571773 31.895565 -2.871232
2006-12-18 08:34:59 51°20.162 2°55.446 9.2079 3.571876 31.894911 -2.871232
2006-12-18 08:35:05 51°20.179 2°55.471 9.2108 3.572187 31.897153 -2.871232
2006-12-18 08:35:09 51°20.19 2°55.488 9.2076 3.572394 31.897526 -2.871232
2006-12-18 08:35:14 51°20.204 2°55.508 9.2063 3.572601 31.898741 -2.871232
2006-12-18 08:35:19 51°20.217 2°55.53 9.2036 3.572705 31.899768 -2.871232
2006-12-18 08:35:24 51°20.231 2°55.551 9.2031 3.572809 31.900796 -2.871232
2006-12-18 08:35:29 51°20.245 2°55.572 9.2066 3.572809 31.900796 -2.871232
2006-12-18 08:35:34 51°20.259 2°55.592 9.2028 3.572809 31.901637 -2.871232
2006-12-18 08:35:39 51°20.273 2°55.613 9.2007 3.572601 31.899582 -2.871232
2006-12-18 08:35:44 51°20.287 2°55.634 9.1981 3.572291 31.89734 -2.871232
2006-12-18 08:35:49 51°20.301 2°55.655 9.1975 3.571462 31.8908 -2.871232
2006-12-18 08:35:54 51°20.314 2°55.676 9.1942 3.570737 31.884447 -2.871232
2006-12-18 08:35:59 51°20.328 2°55.697 9.192 3.570737 31.884447 -2.871232
2006-12-18 08:36:04 51°20.341 2°55.718 9.1893 3.570012 31.877254 -2.871232
2006-12-18 08:36:09 51°20.355 2°55.739 9.1922 3.56908 31.869686 -2.871232
2006-12-18 08:36:14 51°20.369 2°55.76 9.1881 3.568251 31.862305 -2.871232
2006-12-18 08:36:19 51°20.382 2°55.782 9.1874 3.567215 31.853709 -2.871232
2006-12-18 08:36:24 51°20.396 2°55.803 9.1899 3.566076 31.845764 -2.871232
2006-12-18 08:36:29 51°20.409 2°55.824 9.1856 3.566076 31.845764 -2.871232
2006-12-18 08:36:34 51°20.423 2°55.845 9.1835 3.564937 31.836138 -2.871232
2006-12-18 08:36:39 51°20.437 2°55.865 9.1835 3.564005 31.828568 -2.871232
2006-12-18 08:36:44 51°20.45 2°55.887 9.1856 3.56328 31.823053 -2.871232
2006-12-18 08:36:49 51°20.464 2°55.908 9.1825 3.562451 31.81651 -2.871232
2006-12-18 08:36:54 51°20.477 2°55.929 9.1758 3.56183 31.811182 -2.871232
2006-12-18 08:36:59 51°20.491 2°55.95 9.1757 3.56183 31.811182 -2.871232
2006-12-18 08:37:04 51°20.505 2°55.971 9.1755 3.561001 31.804638 -2.871232
2006-12-18 08:37:09 51°20.518 2°55.992 9.1756 3.560483 31.800339 -2.871232
2006-12-18 08:37:14 51°20.532 2°56.013 9.1761 3.559862 31.795011 -2.871232
2006-12-18 08:37:19 51°20.546 2°56.035 9.176 3.55924 31.789683 -2.871232
2006-12-18 08:37:25 51°20.562 2°56.06 9.1823 3.558308 31.782949 -2.871232
2006-12-18 08:37:29 51°20.574 2°56.077 9.1884 3.558308 31.782949 -2.871232
2006-12-18 08:37:34 51°20.587 2°56.098 9.1978 3.557479 31.777242 -2.871232
2006-12-18 08:37:39 51°20.601 2°56.12 9.2034 3.556858 31.771913 -2.871232
2006-12-18 08:37:45 51°20.617 2°56.145 9.2073 3.55634 31.767612 -2.871232
2006-12-18 08:37:49 51°20.628 2°56.162 9.2069 3.555719 31.761445 -2.871232
2006-12-18 08:37:54 51°20.642 2°56.184 9.2087 3.555719 31.758932 -2.871232
2006-12-18 08:37:59 51°20.656 2°56.205 9.2096 3.555719 31.758932 -2.871232
2006-12-18 08:38:04 51°20.67 2°56.226 9.2066 3.556029 31.757826 -2.871232
2006-12-18 08:38:09 51°20.684 2°56.247 9.2091 3.556651 31.75729 -2.871232
2006-12-18 08:38:14 51°20.697 2°56.268 9.2102 3.557168 31.757402 -2.871232
2006-12-18 08:38:20 51°20.714 2°56.294 9.2105 3.557272 31.754243 -2.871232
2006-12-18 08:38:24 51°20.725 2°56.311 9.207 3.557272 31.754243 -2.871232
2006-12-18 08:38:29 51°20.738 2°56.332 9.2086 3.557272 31.751732 -2.871232
2006-12-18 08:38:34 51°20.752 2°56.354 9.2104 3.556961 31.747814 -2.871232
2006-12-18 08:38:39 51°20.766 2°56.375 9.2094 3.55665 31.743896 -2.871232
2006-12-18 08:38:44 51°20.779 2°56.397 9.204 3.55634 31.739979 -2.871232
2006-12-18 08:38:49 51°20.793 2°56.418 9.2031 3.556029 31.736061 -2.871232
2006-12-18 08:38:54 51°20.807 2°56.439 9.2013 3.555511 31.730927 -2.871232
2006-12-18 08:38:59 51°20.82 2°56.46 9.1987 3.555511 31.730927 -2.871232
2006-12-18 08:39:04 51°20.834 2°56.481 9.1968 3.554993 31.725793 -2.871232
2006-12-18 08:39:09 51°20.848 2°56.502 9.1884 3.554579 31.721686 -2.871232
2006-12-18 08:39:14 51°20.862 2°56.523 9.1896 3.553957 31.716361 -2.871232
2006-12-18 08:39:19 51°20.875 2°56.544 9.1839 3.553232 31.710845 -2.871232
2006-12-18 08:39:24 51°20.888 2°56.566 9.1805 3.552611 31.707192 -2.871232
2006-12-18 08:39:29 51°20.902 2°56.587 9.175 3.552611 31.707192 -2.871232
2006-12-18 08:39:34 51°20.916 2°56.608 9.1706 3.551782 31.700648 -2.871232
2006-12-18 08:39:39 51°20.93 2°56.629 9.1628 3.55085 31.694749 -2.871232
2006-12-18 08:39:44 51°20.943 2°56.651 9.1629 3.549711 31.68763 -2.871232
2006-12-18 08:39:49 51°20.957 2°56.672 9.1621 3.548572 31.678839 -2.871232
2006-12-18 08:39:54 51°20.97 2°56.694 9.1584 3.547536 31.673581 -2.871232
2006-12-18 08:39:59 51°20.983 2°56.716 9.1605 3.547536 31.673581 -2.871232
2006-12-18 08:40:05 51°20.997 2°56.745 9.164 3.54619 31.665239 -2.871232
2006-12-18 08:40:09 51°21.007 2°56.764 9.1595 3.545258 31.659335 -2.871232
2006-12-18 08:40:14 51°21.018 2°56.789 9.1543 3.544222 31.654072 -2.871232
2006-12-18 08:40:19 51°21.029 2°56.814 9.1563 3.543497 31.649386 -2.871232
2006-12-18 08:40:24 51°21.04 2°56.84 9.1565 3.542876 31.644891 -2.871232
2006-12-18 08:40:29 51°21.05 2°56.865 9.154 3.542876 31.644891 -2.871232
2006-12-18 08:40:34 51°21.06 2°56.891 9.15 3.542461 31.641616 -2.871232
2006-12-18 08:40:39 51°21.071 2°56.917 9.1501 3.542151 31.639368 -2.871232
2006-12-18 08:40:44 51°21.081 2°56.943 9.1461 3.541736 31.636928 -2.871232
2006-12-18 08:40:49 51°21.091 2°56.969 9.1389 3.541322 31.635323 -2.871232
2006-12-18 08:40:54 51°21.102 2°56.995 9.1368 3.540908 31.632047 -2.871232
2006-12-18 08:40:59 51°21.112 2°57.021 9.136 3.540908 31.632047 -2.871232
2006-12-18 08:41:04 51°21.123 2°57.047 9.1333 3.540597 31.630634 -2.871232
2006-12-18 08:41:09 51°21.133 2°57.073 9.1347 3.540079 31.627165 -2.871232
2006-12-18 08:41:14 51°21.143 2°57.098 9.1317 3.539665 31.624724 -2.871232
2006-12-18 08:41:19 51°21.154 2°57.124 9.1317 3.53894 31.622539 -2.871232
2006-12-18 08:41:24 51°21.165 2°57.15 9.1356 3.538319 31.619712 -2.871232
2006-12-18 08:41:29 51°21.175 2°57.176 9.1375 3.538319 31.619712 -2.871232
2006-12-18 08:41:34 51°21.186 2°57.201 9.1399 3.537697 31.616884 -2.871232
2006-12-18 08:41:39 51°21.196 2°57.227 9.1402 3.537387 31.61547 -2.871232
2006-12-18 08:41:44 51°21.207 2°57.253 9.1452 3.536972 31.613862 -2.871232
2006-12-18 08:41:49 51°21.217 2°57.279 9.1445 3.536662 31.611613 -2.871232
2006-12-18 08:41:54 51°21.228 2°57.305 9.1416 3.536662 31.611613 -2.871232
2006-12-18 08:41:59 51°21.238 2°57.331 9.1416 3.536765 31.611806 -2.871232
2006-12-18 08:42:04 51°21.249 2°57.357 9.1432 3.536869 31.611164 -2.871232
2006-12-18 08:42:09 51°21.26 2°57.382 9.1401 3.537179 31.612578 -2.871232
2006-12-18 08:42:14 51°21.27 2°57.408 9.1416 3.537594 31.615021 -2.871232
2006-12-18 08:42:19 51°21.281 2°57.434 9.1426 3.537904 31.6156 -2.871232
2006-12-18 08:42:26 51°21.296 2°57.47 9.155 3.537904 31.6156 -2.871232
2006-12-18 08:42:29 51°21.302 2°57.486 9.1681 3.537904 31.6156 -2.871232
2006-12-18 08:42:34 51°21.312 2°57.512 9.1785 3.537697 31.613544 -2.871232
2006-12-18 08:42:39 51°21.323 2°57.538 9.1817 3.537594 31.613351 -2.871232
2006-12-18 08:42:44 51°21.334 2°57.563 9.181 3.537283 31.610267 -2.871232
2006-12-18 08:42:49 51°21.345 2°57.589 9.177 3.53749 31.612323 -2.871232
2006-12-18 08:42:54 51°21.355 2°57.615 9.1725 3.538422 31.6174 -2.871232
2006-12-18 08:42:59 51°21.366 2°57.641 9.162 3.538422 31.6174 -2.871232
2006-12-18 08:43:04 51°21.376 2°57.667 9.1537 3.540286 31.626716 -2.871232
2006-12-18 08:43:10 51°21.39 2°57.698 9.1486 3.542151 31.635194 -2.871232
2006-12-18 08:43:14 51°21.398 2°57.718 9.1353 3.543083 31.639431 -2.871232
2006-12-18 08:43:19 51°21.409 2°57.744 9.1327 3.543083 31.637762 -2.871232
2006-12-18 08:43:24 51°21.42 2°57.77 9.1322 3.542668 31.636157 -2.871232
2006-12-18 08:43:29 51°21.431 2°57.795 9.1382 3.542668 31.636157 -2.871232
2006-12-18 08:43:34 51°21.442 2°57.821 9.1458 3.541633 31.630891 -2.871232
2006-12-18 08:43:39 51°21.453 2°57.846 9.1543 3.540079 31.622991 -2.871232
2006-12-18 08:43:44 51°21.465 2°57.87 9.1636 3.538422 31.614061 -2.871232
2006-12-18 08:43:49 51°21.477 2°57.895 9.1718 3.536869 31.605321 -2.871232
2006-12-18 08:43:54 51°21.488 2°57.918 9.1807 3.53604 31.602105 -2.871232
2006-12-18 08:43:59 51°21.498 2°57.94 9.1834 3.53604 31.602105 -2.871232
2006-12-18 08:44:04 51°21.508 2°57.961 9.1838 3.536144 31.602298 -2.871232
2006-12-18 08:44:09 51°21.518 2°57.98 9.1858 3.537179 31.608404 -2.871232
2006-12-18 08:44:14 51°21.527 2°57.999 9.1831 3.538422 31.614061 -2.871232
2006-12-18 08:44:19 51°21.535 2°58.016 9.1832 3.539768 31.618239 -2.871232
2006-12-18 08:44:24 51°21.543 2°58.033 9.181 3.540804 31.621003 -2.871232
2006-12-18 08:44:30 51°21.552 2°58.052 9.1763 3.540804 31.621003 -2.871232
2006-12-18 08:44:34 51°21.558 2°58.065 9.17 3.541736 31.624408 -2.871232
2006-12-18 08:44:39 51°21.566 2°58.08 9.1657 3.542565 31.628453 -2.871232
2006-12-18 08:44:45 51°21.575 2°58.096 9.1596 3.542979 31.630893 -2.871232
2006-12-18 08:44:49 51°21.581 2°58.107 9.1552 3.542979 31.630058 -2.871232
2006-12-18 08:44:54 51°21.588 2°58.119 9.1527 3.542772 31.629673 -2.871232
2006-12-18 08:44:59 51°21.595 2°58.131 9.1511 3.542772 31.629673 -2.871232
2006-12-18 08:45:04 51°21.603 2°58.141 9.1425 3.542047 31.624986 -2.871232
2006-12-18 08:45:09 51°21.61 2°58.151 9.1389 3.541425 31.623829 -2.871232
2006-12-18 08:45:14 51°21.617 2°58.16 9.1219 3.540286 31.617535 -2.871232
2006-12-18 08:45:19 51°21.623 2°58.168 9.1181 3.539147 31.612074 -2.871232
2006-12-18 08:45:24 51°21.63 2°58.174 9.1186 3.539147 31.612074 -2.871232
2006-12-18 08:45:29 51°21.636 2°58.181 9.1185 3.538318 31.608026 -2.871232
2006-12-18 08:45:34 51°21.642 2°58.185 9.1172 3.53749 31.602308 -2.871232
2006-12-18 08:45:39 51°21.648 2°58.19 9.1226 3.536869 31.598645 -2.871232
2006-12-18 08:45:44 51°21.653 2°58.194 9.1318 3.535729 31.591511 -2.871232
2006-12-18 08:45:49 51°21.658 2°58.197 9.1303 3.534487 31.586685 -2.871232
2006-12-18 08:45:54 51°21.662 2°58.199 9.1375 3.533658 31.582632 -2.871232
2006-12-18 08:45:59 51°21.666 2°58.202 9.1342 3.533658 31.582632 -2.871232
2006-12-18 08:46:04 51°21.669 2°58.204 9.1329 3.53314 31.579994 -2.871232
2006-12-18 08:46:09 51°21.671 2°58.206 9.1374 3.532519 31.575494 -2.871232
2006-12-18 08:46:14 51°21.673 2°58.207 9.1376 3.530344 31.552237 -2.871232
2006-12-18 08:46:19 51°21.674 2°58.209 9.1496 3.528272 31.528347 -2.871232
2006-12-18 08:46:24 51°21.675 2°58.21 9.1494 3.526201 31.504464 -2.871232
2006-12-18 08:46:29 51°21.675 2°58.211 9.1475 3.526201 31.504464 -2.871232
2006-12-18 08:46:35 51°21.675 2°58.212 9.1795 3.525062 31.491497 -2.871232
2006-12-18 08:46:39 51°21.676 2°58.212 9.2402 3.525372 31.493748 -2.871232
2006-12-18 08:46:44 51°21.676 2°58.214 9.2747 3.526097 31.499276 -2.871232
2006-12-18 08:46:49 51°21.676 2°58.214 9.285 3.526304 31.498004 -2.871232
2006-12-18 08:46:54 51°21.677 2°58.215 9.2968 3.526408 31.494042 -2.871232
2006-12-18 08:46:59 51°21.677 2°58.217 9.2832 3.526408 31.494042 -2.871232
2006-12-18 08:47:04 51°21.678 2°58.218 9.2692 3.526511 31.490912 -2.871232
2006-12-18 08:47:09 51°21.678 2°58.219 9.2654 3.529722 31.503626 -2.871232
2006-12-18 08:47:14 51°21.678 2°58.219 9.2812 3.536453 31.537915 -2.871232
2006-12-18 08:47:19 51°21.678 2°58.221 9.3221 3.542875 31.569911 -2.871232
2006-12-18 08:47:24 51°21.679 2°58.222 9.3266 3.542875 31.569911 -2.871232
2006-12-18 08:47:29 51°21.679 2°58.223 9.3372 3.546499 31.585835 -2.871232
2006-12-18 08:47:34 51°21.679 2°58.224 9.3316 3.548467 31.599483 -2.871232
2006-12-18 08:47:39 51°21.68 2°58.225 9.3222 3.54826 31.598266 -2.871232
2006-12-18 08:47:44 51°21.68 2°58.226 9.3334 3.549296 31.605185 -2.871232
2006-12-18 08:47:49 51°21.68 2°58.227 9.3371 3.552506 31.623637 -2.871232
2006-12-18 08:47:54 51°21.68 2°58.229 9.3262 3.555613 31.641055 -2.871232
2006-12-18 08:47:59 51°21.681 2°58.23 9.3217 3.555613 31.641055 -2.871232
2006-12-18 08:48:04 51°21.68 2°58.231 9.3193 3.558928 31.661341 -2.871232
2006-12-18 08:48:09 51°21.681 2°58.232 9.3204 3.559446 31.661469 -2.871232
2006-12-18 08:48:14 51°21.681 2°58.234 9.3238 3.560274 31.668825 -2.871232
2006-12-18 08:48:19 51°21.681 2°58.235 9.3231 3.561724 31.678162 -2.871232
2006-12-18 08:48:24 51°21.682 2°58.237 9.314 3.561724 31.67733 -2.871232
2006-12-18 08:48:29 51°21.683 2°58.239 9.2975 3.561724 31.67733 -2.871232
2006-12-18 08:48:34 51°21.683 2°58.24 9.3039 3.561413 31.676756 -2.871232
2006-12-18 08:48:40 51°21.684 2°58.242 9.3076 3.560999 31.675157 -2.871232
2006-12-18 08:48:45 51°21.685 2°58.244 9.314 3.560792 31.673942 -2.871232
2006-12-18 08:48:49 51°21.685 2°58.245 9.3073 3.560481 31.670872 -2.871232
2006-12-18 08:48:54 51°21.686 2°58.247 9.2946 3.559446 31.663964 -2.871232
2006-12-18 08:48:59 51°21.687 2°58.249 9.2695 3.559446 31.663964 -2.871232
2006-12-18 08:49:04 51°21.687 2°58.251 9.2407 3.557788 31.654239 -2.871232
2006-12-18 08:49:09 51°21.688 2°58.252 9.2311 3.55696 31.648544 -2.871232
2006-12-18 08:49:14 51°21.688 2°58.254 9.2136 3.557788 31.65507 -2.871232
2006-12-18 08:49:19 51°21.689 2°58.255 9.2145 3.557788 31.65507 -2.871232
2006-12-18 08:49:25 51°21.69 2°58.257 9.2081 3.556546 31.649438 -2.871232
2006-12-18 08:49:29 51°21.69 2°58.259 9.1999 3.556546 31.649438 -2.871232
2006-12-18 08:49:34 51°21.691 2°58.26 9.1942 3.553646 31.632409 -2.871232
2006-12-18 08:49:39 51°21.691 2°58.262 9.1915 3.549917 31.613827 -2.871232
2006-12-18 08:49:44 51°21.692 2°58.264 9.1875 3.54681 31.598884 -2.871232
2006-12-18 08:49:49 51°21.692 2°58.265 9.1805 3.5436 31.584569 -2.871232
2006-12-18 08:49:54 51°21.693 2°58.267 9.1849 3.541321 31.570326 -2.871232
2006-12-18 08:49:59 51°21.693 2°58.268 9.1887 3.541321 31.570326 -2.871232
2006-12-18 08:50:04 51°21.694 2°58.27 9.1775 3.539353 31.558323 -2.871232
2006-12-18 08:50:10 51°21.694 2°58.272 9.1821 3.537903 31.551445 -2.871232
2006-12-18 08:50:14 51°21.695 2°58.273 9.1801 3.536971 31.548864 -2.871232
2006-12-18 08:50:19 51°21.695 2°58.274 9.1763 3.535832 31.541735 -2.871232
2006-12-18 08:50:24 51°21.695 2°58.276 9.1766 3.535211 31.538073 -2.871232
2006-12-18 08:50:29 51°21.696 2°58.277 9.188 3.535211 31.538073 -2.871232
2006-12-18 08:50:34 51°21.696 2°58.279 9.1786 3.534797 31.536462 -2.871232
2006-12-18 08:50:40 51°21.697 2°58.281 9.1836 3.535107 31.542036 -2.871232
2006-12-18 08:50:44 51°21.697 2°58.282 9.1809 3.534589 31.538567 -2.871232
2006-12-18 08:50:49 51°21.697 2°58.284 9.1768 3.534693 31.541257 -2.871232
2006-12-18 08:50:54 51°21.698 2°58.285 9.1793 3.534693 31.541257 -2.871232
2006-12-18 08:51:00 51°21.699 2°58.287 9.169 3.534486 31.538373 -2.871232
2006-12-18 08:51:05 51°21.699 2°58.289 9.1643 3.534279 31.535488 -2.871232
2006-12-18 08:51:09 51°21.699 2°58.29 9.169 3.534589 31.538567 -2.871232
2006-12-18 08:51:14 51°21.699 2°58.292 9.1682 3.534279 31.535488 -2.871232
2006-12-18 08:51:19 51°21.7 2°58.293 9.1699 3.534693 31.540425 -2.871232
2006-12-18 08:51:24 51°21.7 2°58.295 9.1679 3.535211 31.547221 -2.871232
2006-12-18 08:51:29 51°21.7 2°58.296 9.1715 3.535211 31.547221 -2.871232
2006-12-18 08:51:34 51°21.701 2°58.298 9.1715 3.535729 31.556514 -2.871232
2006-12-18 08:51:39 51°21.701 2°58.299 9.1667 3.53604 31.562092 -2.871232
2006-12-18 08:51:45 51°21.702 2°58.301 9.1659 3.535832 31.561703 -2.871232
2006-12-18 08:51:49 51°21.702 2°58.302 9.1641 3.535729 31.560677 -2.871232
2006-12-18 08:51:54 51°21.702 2°58.304 9.1685 3.53604 31.564589 -2.871232
2006-12-18 08:51:59 51°21.703 2°58.305 9.1679 3.53604 31.564589 -2.871232
2006-12-18 08:52:04 51°21.704 2°58.308 9.1659 3.535729 31.562342 -2.871232
2006-12-18 08:52:09 51°21.705 2°58.31 9.1836 3.535522 31.559456 -2.871232
2006-12-18 08:52:14 51°21.706 2°58.312 9.196 3.535522 31.560288 -2.871232
2006-12-18 08:52:19 51°21.708 2°58.315 9.1955 3.535729 31.563174 -2.871232
2006-12-18 08:52:24 51°21.71 2°58.317 9.1981 3.535625 31.562148 -2.871232
2006-12-18 08:52:29 51°21.713 2°58.319 9.1996 3.535625 31.562148 -2.871232
2006-12-18 08:52:34 51°21.715 2°58.32 9.2094 3.535625 31.561315 -2.871232
2006-12-18 08:52:39 51°21.718 2°58.322 9.2161 3.535936 31.563563 -2.871232
2006-12-18 08:52:44 51°21.721 2°58.323 9.2142 3.536972 31.567169 -2.871232
2006-12-18 08:52:49 51°21.725 2°58.323 9.2198 3.538732 31.578792 -2.871232
2006-12-18 08:52:54 51°21.728 2°58.322 9.2206 3.539768 31.584061 -2.871232
2006-12-18 08:52:59 51°21.732 2°58.321 9.2298 3.539768 31.584061 -2.871232
2006-12-18 08:53:04 51°21.735 2°58.319 9.249 3.540596 31.588108 -2.871232
2006-12-18 08:53:09 51°21.738 2°58.316 9.26 3.541529 31.592348 -2.871232
2006-12-18 08:53:14 51°21.741 2°58.313 9.2672 3.543082 31.601911 -2.871232
2006-12-18 08:53:20 51°21.745 2°58.308 9.268 3.544429 31.611918 -2.871232
2006-12-18 08:53:26 51°21.748 2°58.303 9.275 3.544946 31.614549 -2.871232
2006-12-18 08:53:30 51°21.749 2°58.299 9.2802 3.544946 31.614549 -2.871232
2006-12-18 08:53:34 51°21.751 2°58.295 9.2808 3.545671 31.616733 -2.871232
2006-12-18 08:53:39 51°21.752 2°58.289 9.2816 3.547432 31.622511 -2.871232
2006-12-18 08:53:44 51°21.753 2°58.282 9.2812 3.548882 31.626042 -2.871232
2006-12-18 08:53:49 51°21.754 2°58.276 9.2834 3.550435 31.63143 -2.871232
2006-12-18 08:53:54 51°21.755 2°58.269 9.2854 3.551989 31.640144 -2.871232
2006-12-18 08:53:59 51°21.754 2°58.262 9.2841 3.551989 31.640144 -2.871232
2006-12-18 08:54:04 51°21.754 2°58.255 9.2824 3.553024 31.644565 -2.871232
2006-12-18 08:54:09 51°21.753 2°58.248 9.2842 3.553646 31.647384 -2.871232
2006-12-18 08:54:14 51°21.751 2°58.242 9.2834 3.554371 31.652059 -2.871232
2006-12-18 08:54:19 51°21.75 2°58.236 9.2846 3.554992 31.655709 -2.871232
2006-12-18 08:54:24 51°21.747 2°58.23 9.2785 3.555199 31.65526 -2.871232
2006-12-18 08:54:29 51°21.745 2°58.224 9.2789 3.555199 31.65526 -2.871232
2006-12-18 08:54:34 51°21.742 2°58.219 9.2792 3.555407 31.655645 -2.871232
2006-12-18 08:54:39 51°21.739 2°58.213 9.2791 3.555821 31.660575 -2.871232
2006-12-18 08:54:44 51°21.736 2°58.207 9.279 3.556132 31.662816 -2.871232
2006-12-18 08:54:49 51°21.733 2°58.202 9.2724 3.556442 31.665889 -2.871232
2006-12-18 08:54:54 51°21.73 2°58.196 9.2677 3.556546 31.668579 -2.871232
2006-12-18 08:54:59 51°21.727 2°58.191 9.2674 3.556546 31.668579 -2.871232
2006-12-18 08:55:04 51°21.723 2°58.186 9.2725 3.556649 31.669603 -2.871232
2006-12-18 08:55:09 51°21.72 2°58.182 9.2691 3.556857 31.672485 -2.871232
2006-12-18 08:55:14 51°21.717 2°58.177 9.2721 3.55665 31.672102 -2.871232
2006-12-18 08:55:20 51°21.713 2°58.172 9.2641 3.556546 31.673576 -2.871232
2006-12-18 08:55:24 51°21.711 2°58.169 9.2686 3.556442 31.674217 -2.871232
2006-12-18 08:55:29 51°21.708 2°58.165 9.2677 3.556442 31.674217 -2.871232
2006-12-18 08:55:34 51°21.705 2°58.161 9.2667 3.556339 31.674859 -2.871232
2006-12-18 08:55:40 51°21.701 2°58.157 9.2679 3.556339 31.674859 -2.871232
2006-12-18 08:55:45 51°21.699 2°58.153 9.2655 3.55665 31.678766 -2.871232
2006-12-18 08:55:49 51°21.697 2°58.151 9.2679 3.55696 31.682674 -2.871232
2006-12-18 08:55:54 51°21.694 2°58.148 9.2708 3.557064 31.684532 -2.871232
2006-12-18 08:55:59 51°21.692 2°58.146 9.2706 3.557064 31.684532 -2.871232
2006-12-18 08:56:05 51°21.69 2°58.143 9.2781 3.557168 31.685557 -2.871232
2006-12-18 08:56:10 51°21.688 2°58.142 9.2772 3.557064 31.684532 -2.871232
2006-12-18 08:56:14 51°21.687 2°58.141 9.2793 3.557064 31.684532 -2.871232
2006-12-18 08:56:19 51°21.686 2°58.14 9.2802 3.557375 31.687607 -2.871232
2006-12-18 08:56:26 51°21.685 2°58.139 9.2889 3.557685 31.689848 -2.871232
2006-12-18 08:56:29 51°21.684 2°58.139 9.2842 3.557685 31.689848 -2.871232
2006-12-18 08:56:34 51°21.684 2°58.14 9.2898 3.557893 31.690231 -2.871232
2006-12-18 08:56:39 51°21.683 2°58.14 9.3032 3.557996 31.688755 -2.871232
2006-12-18 08:56:44 51°21.683 2°58.14 9.3076 3.558617 31.692403 -2.871232
2006-12-18 08:56:51 51°21.682 2°58.141 9.312 3.559239 31.696051 -2.871232
2006-12-18 08:56:54 51°21.682 2°58.141 9.3263 3.559757 31.69784 -2.871232
2006-12-18 08:57:00 51°21.681 2°58.142 9.3361 3.559757 31.69784 -2.871232
2006-12-18 08:57:04 51°21.681 2°58.142 9.3387 3.559964 31.699056 -2.871232
2006-12-18 08:57:09 51°21.68 2°58.143 9.3543 3.560792 31.703085 -2.871232
2006-12-18 08:57:14 51°21.68 2°58.143 9.3616 3.562139 31.709734 -2.871232
2006-12-18 08:57:19 51°21.679 2°58.144 9.3731 3.563589 31.719073 -2.871232
2006-12-18 08:57:24 51°21.679 2°58.144 9.3789 3.565142 31.726933 -2.871232
2006-12-18 08:57:29 51°21.679 2°58.145 9.3802 3.565142 31.726933 -2.871232
2006-12-18 08:57:34 51°21.678 2°58.145 9.381 3.566903 31.733504 -2.871232
2006-12-18 08:57:39 51°21.678 2°58.145 9.3841 3.56825 31.737645 -2.871232
2006-12-18 08:57:44 51°21.678 2°58.146 9.397 3.57001 31.744211 -2.871232
2006-12-18 08:57:49 51°21.677 2°58.146 9.4021 3.572289 31.758388 -2.871232
2006-12-18 08:57:54 51°21.677 2°58.146 9.4052 3.574464 31.770704 -2.871232
2006-12-18 08:58:00 51°21.676 2°58.147 9.4077 3.574464 31.770704 -2.871232
2006-12-18 08:58:05 51°21.676 2°58.147 9.4079 3.57581 31.777334 -2.871232
2006-12-18 08:58:09 51°21.676 2°58.148 9.4087 3.576743 31.782371 -2.871232
2006-12-18 08:58:14 51°21.675 2°58.148 9.4104 3.578089 31.789831 -2.871232
2006-12-18 08:58:19 51°21.675 2°58.148 9.4137 3.579953 31.800734 -2.871232
2006-12-18 08:58:25 51°21.674 2°58.149 9.4191 3.581404 31.808377 -2.871232
2006-12-18 08:58:30 51°21.674 2°58.149 9.4211 3.581404 31.808377 -2.871232
2006-12-18 08:58:34 51°21.674 2°58.149 9.4273 3.581921 31.810154 -2.871232
2006-12-18 08:58:39 51°21.673 2°58.15 9.4336 3.582129 31.809698 -2.871232
2006-12-18 08:58:44 51°21.673 2°58.15 9.4353 3.582646 31.812308 -2.871232
2006-12-18 08:58:49 51°21.673 2°58.15 9.4326 3.583475 31.818817 -2.871232
2006-12-18 08:58:55 51°21.672 2°58.151 9.4287 3.584407 31.82468 -2.871232
2006-12-18 08:58:59 51°21.672 2°58.151 9.4279 3.584407 31.82468 -2.871232
2006-12-18 08:59:04 51°21.672 2°58.151 9.4305 3.585236 31.828687 -2.871232
2006-12-18 08:59:09 51°21.671 2°58.152 9.4277 3.586375 31.834925 -2.871232
2006-12-18 08:59:14 51°21.671 2°58.152 9.4259 3.587204 31.83893 -2.871232
2006-12-18 08:59:20 51°21.671 2°58.152 9.4284 3.587722 31.841537 -2.871232
2006-12-18 08:59:24 51°21.671 2°58.153 9.4302 3.587929 31.84358 -2.871232
2006-12-18 08:59:29 51°21.671 2°58.153 9.4285 3.587929 31.84358 -2.871232
2006-12-18 08:59:34 51°21.67 2°58.154 9.4263 3.588032 31.844602 -2.871232
2006-12-18 08:59:40 51°21.67 2°58.154 9.4226 3.588032 31.844602 -2.871232
2006-12-18 08:59:45 51°21.67 2°58.154 9.4236 3.588136 31.846457 -2.871232
2006-12-18 08:59:49 51°21.669 2°58.155 9.4222 3.588032 31.844602 -2.871232
2006-12-18 08:59:54 51°21.669 2°58.155 9.4226 3.587825 31.842559 -2.871232
2006-12-18 08:59:59 51°21.669 2°58.155 9.4212 3.587825 31.842559 -2.871232
2006-12-18 09:00:04 51°21.669 2°58.156 9.4134 3.587722 31.842371 -2.871232
2006-12-18 09:00:10 51°21.669 2°58.156 9.4104 3.587411 31.84014 -2.871232
2006-12-18 09:00:14 51°21.669 2°58.157 9.4066 3.587204 31.83893 -2.871232
2006-12-18 09:00:19 51°21.669 2°58.157 9.4057 3.586997 31.83772 -2.871232
2006-12-18 09:00:24 51°21.669 2°58.157 9.4046 3.586893 31.837532 -2.871232
2006-12-18 09:00:29 51°21.669 2°58.158 9.4008 3.586893 31.837532 -2.871232
2006-12-18 09:00:34 51°21.669 2°58.158 9.3989 3.586582 31.836135 -2.871232
2006-12-18 09:00:39 51°21.669 2°58.158 9.399 3.585857 31.832317 -2.871232
2006-12-18 09:00:45 51°21.669 2°58.159 9.3981 3.585132 31.828499 -2.871232
2006-12-18 09:00:50 51°21.668 2°58.159 9.4009 3.584511 31.825702 -2.871232
2006-12-18 09:00:54 51°21.668 2°58.159 9.4048 3.583889 31.822071 -2.871232
2006-12-18 09:01:00 51°21.668 2°58.16 9.4042 3.583889 31.822071 -2.871232
2006-12-18 09:01:04 51°21.668 2°58.16 9.4028 3.583371 31.819462 -2.871232
2006-12-18 09:01:09 51°21.668 2°58.161 9.4017 3.582854 31.816853 -2.871232
2006-12-18 09:01:14 51°21.668 2°58.161 9.3992 3.582646 31.816476 -2.871232
2006-12-18 09:01:19 51°21.668 2°58.161 9.3948 3.582646 31.815642 -2.871232
2006-12-18 09:01:24 51°21.668 2°58.162 9.3931 3.582957 31.817041 -2.871232
2006-12-18 09:01:29 51°21.668 2°58.162 9.3888 3.582957 31.817041 -2.871232
2006-12-18 09:01:34 51°21.668 2°58.163 9.3885 3.583061 31.81723 -2.871232
2006-12-18 09:01:40 51°21.668 2°58.163 9.3855 3.582854 31.816019 -2.871232
2006-12-18 09:01:45 51°21.668 2°58.164 9.3818 3.582439 31.811931 -2.871232
2006-12-18 09:01:49 51°21.668 2°58.164 9.3788 3.582129 31.811365 -2.871232
2006-12-18 09:01:54 51°21.668 2°58.164 9.3813 3.581507 31.808566 -2.871232
2006-12-18 09:02:00 51°21.668 2°58.165 9.3811 3.581507 31.808566 -2.871232
2006-12-18 09:02:05 51°21.668 2°58.166 9.3796 3.581093 31.806978 -2.871232
2006-12-18 09:02:09 51°21.668 2°58.166 9.3801 3.580678 31.805389 -2.871232
2006-12-18 09:02:14 51°21.668 2°58.167 9.3786 3.580161 31.802778 -2.871232
2006-12-18 09:02:20 51°21.668 2°58.167 9.3788 3.579746 31.80119 -2.871232
2006-12-18 09:02:24 51°21.668 2°58.168 9.3802 3.579436 31.799789 -2.871232
2006-12-18 09:02:29 51°21.668 2°58.168 9.3857 3.579436 31.799789 -2.871232
2006-12-18 09:02:34 51°21.668 2°58.168 9.3849 3.579228 31.798578 -2.871232
2006-12-18 09:02:40 51°21.669 2°58.169 9.3826 3.579125 31.797556 -2.871232
2006-12-18 09:02:45 51°21.669 2°58.17 9.3834 3.579125 31.798389 -2.871232
2006-12-18 09:02:49 51°21.669 2°58.17 9.3825 3.579021 31.7982 -2.871232
2006-12-18 09:02:55 51°21.669 2°58.171 9.3825 3.578814 31.796155 -2.871232
2006-12-18 09:02:59 51°21.669 2°58.171 9.3853 3.578814 31.796155 -2.871232
2006-12-18 09:03:05 51°21.669 2°58.172 9.385 3.579125 31.797556 -2.871232
2006-12-18 09:03:10 51°21.669 2°58.173 9.3876 3.579539 31.800812 -2.871232
2006-12-18 09:03:14 51°21.669 2°58.173 9.3895 3.579643 31.801001 -2.871232
2006-12-18 09:03:20 51°21.669 2°58.174 9.3897 3.579643 31.801834 -2.871232
2006-12-18 09:03:24 51°21.67 2°58.175 9.3918 3.579643 31.801834 -2.871232
2006-12-18 09:03:30 51°21.67 2°58.175 9.3933 3.579643 31.801834 -2.871232
2006-12-18 09:03:34 51°21.67 2°58.176 9.3987 3.579643 31.801001 -2.871232
2006-12-18 09:03:39 51°21.67 2°58.177 9.3979 3.579643 31.800167 -2.871232
2006-12-18 09:03:44 51°21.67 2°58.177 9.3974 3.579643 31.7985 -2.871232
2006-12-18 09:03:50 51°21.671 2°58.178 9.3953 3.579539 31.795811 -2.871232
2006-12-18 09:03:54 51°21.671 2°58.179 9.3894 3.579539 31.794977 -2.871232
2006-12-18 09:03:59 51°21.671 2°58.179 9.3892 3.579539 31.794977 -2.871232
2006-12-18 09:04:04 51°21.671 2°58.18 9.3915 3.579643 31.7935 -2.871232
2006-12-18 09:04:09 51°21.671 2°58.181 9.3921 3.579953 31.794067 -2.871232
2006-12-18 09:04:15 51°21.671 2°58.182 9.3972 3.580057 31.794256 -2.871232
2006-12-18 09:04:20 51°21.672 2°58.183 9.3972 3.580057 31.794256 -2.871232
2006-12-18 09:04:25 51°21.672 2°58.184 9.3946 3.579953 31.795733 -2.871232
2006-12-18 09:04:29 51°21.672 2°58.184 9.391 3.579953 31.795733 -2.871232
2006-12-18 09:04:34 51°21.672 2°58.185 9.3866 3.579643 31.794333 -2.871232
2006-12-18 09:04:39 51°21.672 2°58.185 9.3827 3.579643 31.794333 -2.871232
2006-12-18 09:04:44 51°21.672 2°58.186 9.3799 3.57985 31.794711 -2.871232
2006-12-18 09:04:49 51°21.672 2°58.187 9.3793 3.580057 31.795089 -2.871232
2006-12-18 09:04:54 51°21.672 2°58.188 9.3751 3.580264 31.797133 -2.871232
2006-12-18 09:04:59 51°21.672 2°58.189 9.3725 3.580264 31.797133 -2.871232
2006-12-18 09:05:06 51°21.673 2°58.19 9.3668 3.580368 31.798989 -2.871232
2006-12-18 09:05:09 51°21.673 2°58.191 9.359 3.580161 31.800278 -2.871232
2006-12-18 09:05:14 51°21.673 2°58.192 9.3528 3.579746 31.799522 -2.871232
2006-12-18 09:05:19 51°21.673 2°58.193 9.3487 3.579436 31.798956 -2.871232
2006-12-18 09:05:25 51°21.673 2°58.194 9.3409 3.578918 31.796344 -2.871232
2006-12-18 09:05:30 51°21.674 2°58.195 9.3353 3.578918 31.796344 -2.871232
2006-12-18 09:05:34 51°21.674 2°58.195 9.3313 3.578607 31.796611 -2.871232
2006-12-18 09:05:40 51°21.674 2°58.196 9.3295 3.577882 31.794454 -2.871232
2006-12-18 09:05:45 51°21.674 2°58.197 9.3252 3.576743 31.78904 -2.871232
2006-12-18 09:05:50 51°21.674 2°58.198 9.3242 3.576018 31.786882 -2.871232
2006-12-18 09:05:54 51°21.675 2°58.199 9.3226 3.574878 31.781465 -2.871232
2006-12-18 09:05:59 51°21.675 2°58.2 9.3229 3.574878 31.781465 -2.871232
2006-12-18 09:06:04 51°21.675 2°58.201 9.3256 3.573739 31.776047 -2.871232
2006-12-18 09:06:09 51°21.675 2°58.202 9.327 3.572911 31.772864 -2.871232
2006-12-18 09:06:14 51°21.675 2°58.203 9.3317 3.572185 31.769869 -2.871232
2006-12-18 09:06:20 51°21.676 2°58.205 9.3405 3.571357 31.765851 -2.871232
2006-12-18 09:06:24 51°21.676 2°58.205 9.3495 3.570943 31.764258 -2.871232
2006-12-18 09:06:29 51°21.676 2°58.206 9.3541 3.570943 31.764258 -2.871232
2006-12-18 09:06:34 51°21.676 2°58.207 9.3602 3.570735 31.763879 -2.871232
2006-12-18 09:06:40 51°21.676 2°58.208 9.3647 3.570528 31.760998 -2.871232
2006-12-18 09:06:45 51°21.676 2°58.209 9.3648 3.570632 31.760353 -2.871232
2006-12-18 09:06:49 51°21.676 2°58.21 9.3613 3.571046 31.760279 -2.871232
2006-12-18 09:06:54 51°21.676 2°58.211 9.3554 3.571046 31.760279 -2.871232
2006-12-18 09:06:59 51°21.676 2°58.212 9.3471 3.571771 31.761607 -2.871232
2006-12-18 09:07:04 51°21.677 2°58.213 9.3417 3.5726 31.763124 -2.871232
2006-12-18 09:07:11 51°21.678 2°58.215 9.3394 3.573325 31.765286 -2.871232
2006-12-18 09:07:14 51°21.678 2°58.215 9.336 3.573843 31.7654 -2.871232
2006-12-18 09:07:19 51°21.678 2°58.216 9.3368 3.57405 31.764946 -2.871232
2006-12-18 09:07:25 51°21.678 2°58.218 9.3389 3.573946 31.766423 -2.871232
2006-12-18 09:07:30 51°21.678 2°58.219 9.3402 3.573946 31.766423 -2.871232
2006-12-18 09:07:34 51°21.678 2°58.219 9.342 3.573428 31.764642 -2.871232
2006-12-18 09:07:39 51°21.679 2°58.221 9.3398 3.57291 31.764527 -2.871232
2006-12-18 09:07:44 51°21.679 2°58.221 9.3363 3.572496 31.764602 -2.871232
2006-12-18 09:07:50 51°21.679 2°58.223 9.3324 3.572185 31.764033 -2.871232
2006-12-18 09:07:54 51°21.68 2°58.224 9.3276 3.571875 31.76263 -2.871232
2006-12-18 09:08:00 51°21.68 2°58.225 9.3248 3.571875 31.76263 -2.871232
2006-12-18 09:08:04 51°21.68 2°58.226 9.3257 3.571875 31.76263 -2.871232
2006-12-18 09:08:10 51°21.68 2°58.227 9.3318 3.571771 31.760773 -2.871232
2006-12-18 09:08:14 51°21.681 2°58.228 9.336 3.571668 31.75975 -2.871232
2006-12-18 09:08:19 51°21.681 2°58.229 9.3372 3.571253 31.758991 -2.871232
2006-12-18 09:08:24 51°21.681 2°58.23 9.3346 3.570735 31.757208 -2.871232
2006-12-18 09:08:29 51°21.681 2°58.23 9.3217 3.570735 31.757208 -2.871232
2006-12-18 09:08:34 51°21.682 2°58.23 9.3171 3.570218 31.755425 -2.871232
2006-12-18 09:08:40 51°21.683 2°58.23 9.3119 3.569907 31.753188 -2.871232
2006-12-18 09:08:44 51°21.683 2°58.229 9.3104 3.569907 31.751521 -2.871232
2006-12-18 09:08:49 51°21.684 2°58.228 9.3155 3.569907 31.74902 -2.871232
2006-12-18 09:08:54 51°21.684 2°58.226 9.3203 3.569803 31.747164 -2.871232
2006-12-18 09:09:00 51°21.686 2°58.223 9.3168 3.569803 31.747164 -2.871232
2006-12-18 09:09:05 51°21.687 2°58.221 9.3102 3.569389 31.747237 -2.871232
2006-12-18 09:09:09 51°21.687 2°58.218 9.305 3.568871 31.74712 -2.871232
2006-12-18 09:09:15 51°21.688 2°58.214 9.2943 3.56825 31.74598 -2.871232
2006-12-18 09:09:20 51°21.689 2°58.209 9.2894 3.56825 31.747647 -2.871232
2006-12-18 09:09:25 51°21.69 2°58.205 9.2932 3.56856 31.749885 -2.871232
2006-12-18 09:09:30 51°21.69 2°58.2 9.2947 3.56856 31.749885 -2.871232
2006-12-18 09:09:34 51°21.691 2°58.196 9.2997 3.568768 31.752767 -2.871232
2006-12-18 09:09:39 51°21.691 2°58.19 9.2993 3.56825 31.750149 -2.871232
2006-12-18 09:09:45 51°21.692 2°58.184 9.3003 3.567525 31.748819 -2.871232
2006-12-18 09:09:49 51°21.692 2°58.18 9.3008 3.566696 31.746465 -2.871232
2006-12-18 09:09:54 51°21.691 2°58.175 9.3014 3.566282 31.745704 -2.871232
2006-12-18 09:09:59 51°21.691 2°58.17 9.2976 3.566282 31.745704 -2.871232
2006-12-18 09:10:05 51°21.691 2°58.165 9.2951 3.566178 31.746349 -2.871232
2006-12-18 09:10:10 51°21.691 2°58.16 9.2975 3.566282 31.745704 -2.871232
2006-12-18 09:10:14 51°21.691 2°58.157 9.2921 3.566489 31.747753 -2.871232
2006-12-18 09:10:20 51°21.691 2°58.152 9.2896 3.5668 31.749157 -2.871232
2006-12-18 09:10:24 51°21.691 2°58.15 9.2883 3.5668 31.749157 -2.871232
2006-12-18 09:10:30 51°21.691 2°58.146 9.2826 3.567007 31.750372 -2.871232
2006-12-18 09:10:34 51°21.69 2°58.143 9.2832 3.567007 31.751206 -2.871232
2006-12-18 09:10:39 51°21.69 2°58.141 9.2802 3.566903 31.75185 -2.871232
2006-12-18 09:10:44 51°21.691 2°58.139 9.279 3.566903 31.752685 -2.871232
2006-12-18 09:10:50 51°21.691 2°58.137 9.2842 3.566696 31.752305 -2.871232
2006-12-18 09:10:54 51°21.691 2°58.136 9.288 3.566593 31.753784 -2.871232
2006-12-18 09:10:59 51°21.691 2°58.135 9.2934 3.566593 31.753784 -2.871232
2006-12-18 09:11:04 51°21.692 2°58.134 9.3007 3.566178 31.753859 -2.871232
2006-12-18 09:11:09 51°21.692 2°58.133 9.3024 3.565971 31.753479 -2.871232
2006-12-18 09:11:14 51°21.692 2°58.131 9.3048 3.565661 31.752075 -2.871232
2006-12-18 09:11:20 51°21.692 2°58.131 9.308 3.565661 31.75291 -2.871232
2006-12-18 09:11:25 51°21.693 2°58.13 9.3094 3.566179 31.756363 -2.871232
2006-12-18 09:11:29 51°21.693 2°58.129 9.3093 3.566179 31.756363 -2.871232
2006-12-18 09:11:34 51°21.694 2°58.128 9.3113 3.566904 31.760197 -2.871232
2006-12-18 09:11:40 51°21.695 2°58.128 9.3129 3.567628 31.761525 -2.871232
2006-12-18 09:11:45 51°21.695 2°58.127 9.3098 3.568354 31.766192 -2.871232
2006-12-18 09:11:50 51°21.696 2°58.127 9.3084 3.568975 31.768165 -2.871232
2006-12-18 09:11:54 51°21.696 2°58.126 9.3078 3.569493 31.770782 -2.871232
2006-12-18 09:12:00 51°21.697 2°58.126 9.3066 3.569493 31.770782 -2.871232
2006-12-18 09:12:04 51°21.697 2°58.125 9.3023 3.570011 31.773399 -2.871232
2006-12-18 09:12:09 51°21.698 2°58.125 9.298 3.570321 31.774802 -2.871232
2006-12-18 09:12:14 51°21.699 2°58.125 9.2935 3.570632 31.77704 -2.871232
2006-12-18 09:12:20 51°21.7 2°58.124 9.291 3.570529 31.776016 -2.871232
2006-12-18 09:12:26 51°21.701 2°58.124 9.2946 3.570425 31.775826 -2.871232
2006-12-18 09:12:30 51°21.701 2°58.124 9.2949 3.570425 31.775826 -2.871232
2006-12-18 09:12:35 51°21.702 2°58.124 9.2925 3.570218 31.775447 -2.871232
2006-12-18 09:12:41 51°21.703 2°58.124 9.2941 3.569596 31.771806 -2.871232
2006-12-18 09:12:45 51°21.703 2°58.124 9.2929 3.569182 31.771883 -2.871232
2006-12-18 09:12:51 51°21.704 2°58.124 9.2919 3.568768 31.771125 -2.871232
2006-12-18 09:12:55 51°21.705 2°58.124 9.2907 3.568561 31.769911 -2.871232
2006-12-18 09:13:01 51°21.706 2°58.124 9.2888 3.568561 31.769911 -2.871232
2006-12-18 09:13:06 51°21.707 2°58.124 9.2867 3.568664 31.77177 -2.871232
2006-12-18 09:13:09 51°21.707 2°58.124 9.2876 3.568561 31.770746 -2.871232